Observation data for Sterling City on 05/27/2019      Previous  Date  Next       Current Mesonet Observations  Soil Data  Daily Summary Page  Observations in Plain Language
KSC1 270500Z 13009KT 23/19 A2989 RMK A01 T02290188  RH  078%=      5-min Rain = 0
KSC1 270501Z 13009KT 23/19 A2989 RMK A01 T02290189  RH  078%=      5-min Rain = 0
KSC1 270502Z 13007KT 23/19 A2989 RMK A01 T02280189  RH  078%=      5-min Rain = 0
KSC1 270503Z 13009KT 23/19 A2989 RMK A01 T02280188  RH  078%=      5-min Rain = 0
KSC1 270504Z 13008KT 23/19 A2989 RMK A01 T02280189  RH  079%=      5-min Rain = 0
KSC1 270505Z 13006KT 23/19 A299 RMK A01 T02270189  RH  079%=      5-min Rain = 0
KSC1 270506Z 13008KT 23/19 A299 RMK A01 T02260189  RH  079%=      5-min Rain = 0
KSC1 270507Z 13008KT 23/19 A299 RMK A01 T02260189  RH  079%=      5-min Rain = 0
KSC1 270508Z 13008KT 23/19 A299 RMK A01 T02260189  RH  080%=      5-min Rain = 0
KSC1 270509Z 13008KT 23/19 A299 RMK A01 T02260189  RH  080%=      5-min Rain = 0
KSC1 270510Z 13009KT 23/19 A299 RMK A01 T02260189  RH  080%=      5-min Rain = 0
KSC1 270511Z 13009KT 23/19 A299 RMK A01 T02260189  RH  080%=      5-min Rain = 0
KSC1 270512Z 13008KT 23/19 A299 RMK A01 T02260189  RH  079%=      5-min Rain = 0
KSC1 270513Z 13008KT 23/19 A299 RMK A01 T02260189  RH  079%=      5-min Rain = 0
KSC1 270514Z 13008KT 23/19 A299 RMK A01 T02260189  RH  079%=      5-min Rain = 0
KSC1 270515Z 13009KT 23/19 A299 RMK A01 T02260189  RH  080%=      5-min Rain = 0
KSC1 270516Z 13009KT 23/19 A299 RMK A01 T02250189  RH  080%=      5-min Rain = 0
KSC1 270517Z 13008KT 23/19 A299 RMK A01 T02260189  RH  080%=      5-min Rain = 0
KSC1 270518Z 13008KT 23/19 A299 RMK A01 T02250189  RH  080%=      5-min Rain = 0
KSC1 270519Z 13008KT 23/19 A299 RMK A01 T02250189  RH  080%=      5-min Rain = 0
KSC1 270520Z 13008KT 22/19 A2989 RMK A01 T02240189  RH  080%=      5-min Rain = 0
KSC1 270521Z 13008KT 22/19 A2989 RMK A01 T02240189  RH  080%=      5-min Rain = 0
KSC1 270522Z 13008KT 22/19 A2989 RMK A01 T02240189  RH  080%=      5-min Rain = 0
KSC1 270523Z 13008KT 22/19 A2989 RMK A01 T02240189  RH  081%=      5-min Rain = 0
KSC1 270524Z 13007KT 22/19 A2989 RMK A01 T02240189  RH  081%=      5-min Rain = 0
KSC1 270525Z 13008KT 22/19 A2989 RMK A01 T02230189  RH  081%=      5-min Rain = 0
KSC1 270526Z 13009KT 22/19 A2989 RMK A01 T02230189  RH  081%=      5-min Rain = 0
KSC1 270527Z 13008KT 22/19 A2989 RMK A01 T02230189  RH  081%=      5-min Rain = 0
KSC1 270528Z 13008KT 22/19 A2989 RMK A01 T02230189  RH  081%=      5-min Rain = 0
KSC1 270529Z 13008KT 22/19 A2989 RMK A01 T02230189  RH  081%=      5-min Rain = 0
KSC1 270530Z 13009KT 22/19 A2989 RMK A01 T02230189  RH  081%=      5-min Rain = 0
KSC1 270531Z 13008KT 22/19 A2989 RMK A01 T02230189  RH  081%=      5-min Rain = 0
KSC1 270532Z 14007KT 22/19 A299 RMK A01 T02230188  RH  081%=      5-min Rain = 0
KSC1 270533Z 13007KT 22/19 A299 RMK A01 T02240189  RH  081%=      5-min Rain = 0
KSC1 270534Z 13008KT 22/19 A299 RMK A01 T02240189  RH  081%=      5-min Rain = 0
KSC1 270535Z 13009KT 22/19 A299 RMK A01 T02230189  RH  081%=      5-min Rain = 0
KSC1 270536Z 13008KT 22/19 A2989 RMK A01 T02230188  RH  081%=      5-min Rain = 0
KSC1 270537Z 13009KT 22/19 A2989 RMK A01 T02240189  RH  081%=      5-min Rain = 0
KSC1 270538Z 13008KT 22/19 A2989 RMK A01 T02240188  RH  080%=      5-min Rain = 0
KSC1 270539Z 13009KT 22/19 A2989 RMK A01 T02240188  RH  080%=      5-min Rain = 0
KSC1 270540Z 13008KT 22/19 A2989 RMK A01 T02240188  RH  080%=      5-min Rain = 0
KSC1 270541Z 13008KT 23/19 A2989 RMK A01 T02250188  RH  080%=      5-min Rain = 0
KSC1 270542Z 13008KT 23/19 A2989 RMK A01 T02250188  RH  080%=      5-min Rain = 0
KSC1 270543Z 13009KT 22/19 A2989 RMK A01 T02240188  RH  080%=      5-min Rain = 0
KSC1 270544Z 13008KT 22/19 A2989 RMK A01 T02240188  RH  080%=      5-min Rain = 0
KSC1 270545Z 13008KT 22/19 A2989 RMK A01 T02240188  RH  080%=      5-min Rain = 0
KSC1 270546Z 13008KT 22/19 A2989 RMK A01 T02240188  RH  080%=      5-min Rain = 0
KSC1 270547Z 13009KT 22/19 A2989 RMK A01 T02240188  RH  080%=      5-min Rain = 0
KSC1 270548Z 13007KT 22/19 A2989 RMK A01 T02240188  RH  080%=      5-min Rain = 0
KSC1 270549Z 13008KT 22/19 A2989 RMK A01 T02240188  RH  080%=      5-min Rain = 0
KSC1 270550Z 13008KT 22/19 A2989 RMK A01 T02230188  RH  080%=      5-min Rain = 0
KSC1 270551Z 13008KT 22/19 A2989 RMK A01 T02240188  RH  080%=      5-min Rain = 0
KSC1 270552Z 13009KT 22/19 A2989 RMK A01 T02240188  RH  080%=      5-min Rain = 0
KSC1 270553Z 13009KT 22/19 A2989 RMK A01 T02240188  RH  080%=      5-min Rain = 0
KSC1 270554Z 13009KT 22/19 A2989 RMK A01 T02240188  RH  080%=      5-min Rain = 0
KSC1 270555Z 13008KT 22/19 A2989 RMK A01 T02240188  RH  080%=      5-min Rain = 0
KSC1 270556Z 13008KT 22/19 A2989 RMK A01 T02230188  RH  080%=      5-min Rain = 0
KSC1 270557Z 13008KT 22/19 A2989 RMK A01 T02230188  RH  081%=      5-min Rain = 0
KSC1 270558Z 13010KT 22/19 A2989 RMK A01 T02230188  RH  081%=      5-min Rain = 0
KSC1 270559Z 13010KT 22/19 A2989 RMK A01 T02230188  RH  080%=      5-min Rain = 0
KSC1 270600Z 13008KT 22/19 A2989 RMK A01 T02230187  RH  080%=      5-min Rain = 0
KSC1 270601Z 13007KT 22/19 A2989 RMK A01 T02230188  RH  080%=      5-min Rain = 0
KSC1 270602Z 13007KT 22/19 A2989 RMK A01 T02230188  RH  081%=      5-min Rain = 0
KSC1 270603Z 13009KT 22/19 A2989 RMK A01 T02220187  RH  081%=      5-min Rain = 0
KSC1 270604Z 13009KT 22/19 A2989 RMK A01 T02220187  RH  081%=      5-min Rain = 0
KSC1 270605Z 13009KT 22/19 A2989 RMK A01 T02220187  RH  081%=      5-min Rain = 0
KSC1 270606Z 13009KT 22/19 A2989 RMK A01 T02220187  RH  081%=      5-min Rain = 0
KSC1 270607Z 13008KT 22/19 A2989 RMK A01 T02220187  RH  080%=      5-min Rain = 0
KSC1 270608Z 13010KT 22/19 A2989 RMK A01 T02220187  RH  080%=      5-min Rain = 0
KSC1 270609Z 13008KT 22/19 A2989 RMK A01 T02230187  RH  080%=      5-min Rain = 0
KSC1 270610Z 13009G15KT 22/19 A2989 RMK A01 T02230187  RH  080%=      5-min Rain = 0
KSC1 270611Z 13008KT 22/19 A2989 RMK A01 T02230187  RH  080%=      5-min Rain = 0
KSC1 270612Z 13007KT 22/19 A2989 RMK A01 T02240188  RH  080%=      5-min Rain = 0
KSC1 270613Z 14010KT 22/19 A2989 RMK A01 T02240187  RH  080%=      5-min Rain = 0
KSC1 270614Z 13009KT 22/19 A2989 RMK A01 T02240187  RH  080%=      5-min Rain = 0
KSC1 270615Z 14009KT 22/19 A2989 RMK A01 T02240187  RH  080%=      5-min Rain = 0
KSC1 270616Z 13008KT 22/19 A2989 RMK A01 T02240187  RH  080%=      5-min Rain = 0
KSC1 270617Z 14008KT 22/19 A2989 RMK A01 T02240187  RH  080%=      5-min Rain = 0
KSC1 270618Z 13009KT 22/19 A2989 RMK A01 T02240187  RH  080%=      5-min Rain = 0
KSC1 270619Z 14010KT 22/19 A2989 RMK A01 T02240187  RH  080%=      5-min Rain = 0
KSC1 270620Z 14010KT 23/19 A2989 RMK A01 T02250187  RH  079%=      5-min Rain = 0
KSC1 270621Z 14009KT 23/19 A2989 RMK A01 T02260188  RH  079%=      5-min Rain = 0
KSC1 270622Z 14010KT 23/19 A2989 RMK A01 T02260188  RH  079%=      5-min Rain = 0
KSC1 270623Z 14010KT 23/19 A2988 RMK A01 T02260188  RH  079%=      5-min Rain = 0
KSC1 270624Z 14008KT 23/19 A2988 RMK A01 T02260188  RH  079%=      5-min Rain = 0
KSC1 270625Z 14009KT 23/19 A2988 RMK A01 T02260187  RH  079%=      5-min Rain = 0
KSC1 270626Z 14008KT 23/19 A2988 RMK A01 T02260187  RH  079%=      5-min Rain = 0
KSC1 270627Z 14010KT 23/19 A2988 RMK A01 T02260188  RH  079%=      5-min Rain = 0
KSC1 270628Z 14011KT 23/19 A2988 RMK A01 T02270188  RH  079%=      5-min Rain = 0
KSC1 270629Z 14009KT 23/19 A2988 RMK A01 T02280188  RH  078%=      5-min Rain = 0
KSC1 270630Z 14008KT 23/19 A2988 RMK A01 T02280188  RH  078%=      5-min Rain = 0
KSC1 270631Z 15013KT 23/19 A2988 RMK A01 T02280188  RH  078%=      5-min Rain = 0
KSC1 270632Z 14012KT 23/19 A2988 RMK A01 T02280189  RH  078%=      5-min Rain = 0
KSC1 270633Z 15013KT 23/19 A2988 RMK A01 T02290188  RH  078%=      5-min Rain = 0
KSC1 270634Z 14011G16KT 23/19 A2988 RMK A01 T02290188  RH  078%=      5-min Rain = 0
KSC1 270635Z 13013KT 23/19 A2988 RMK A01 T02300189  RH  078%=      5-min Rain = 0
KSC1 270636Z 14010G16KT 23/19 A2988 RMK A01 T02300189  RH  078%=      5-min Rain = 0
KSC1 270637Z 15010KT 23/19 A2988 RMK A01 T02300189  RH  078%=      5-min Rain = 0
KSC1 270638Z 14009KT 23/19 A2988 RMK A01 T02290189  RH  078%=      5-min Rain = 0
KSC1 270639Z 14012G17KT 23/19 A2988 RMK A01 T02290189  RH  078%=      5-min Rain = 0
KSC1 270640Z 15011KT 23/19 A2988 RMK A01 T02290189  RH  078%=      5-min Rain = 0
KSC1 270641Z 15010KT 23/19 A2988 RMK A01 T02290189  RH  078%=      5-min Rain = 0
KSC1 270642Z 14010KT 23/19 A2988 RMK A01 T02290189  RH  078%=      5-min Rain = 0
KSC1 270643Z 15011KT 23/19 A2988 RMK A01 T02290190  RH  078%=      5-min Rain = 0
KSC1 270644Z 14012KT 23/19 A2988 RMK A01 T02290190  RH  078%=      5-min Rain = 0
KSC1 270645Z 14009KT 23/19 A2988 RMK A01 T02290189  RH  078%=      5-min Rain = 0
KSC1 270646Z 14008KT 23/19 A2988 RMK A01 T02300190  RH  078%=      5-min Rain = 0
KSC1 270647Z 15013KT 23/19 A2988 RMK A01 T02290190  RH  079%=      5-min Rain = 0
KSC1 270648Z 14010KT 23/19 A2988 RMK A01 T02290190  RH  079%=      5-min Rain = 0
KSC1 270649Z 14010KT 23/19 A2988 RMK A01 T02290190  RH  079%=      5-min Rain = 0
KSC1 270650Z 14009G14KT 23/19 A2988 RMK A01 T02290190  RH  079%=      5-min Rain = 0
KSC1 270651Z 14014G20KT 23/19 A2988 RMK A01 T02290190  RH  079%=      5-min Rain = 0
KSC1 270652Z 14012KT 23/19 A2988 RMK A01 T02290191  RH  079%=      5-min Rain = 0
KSC1 270653Z 14012KT 23/19 A2988 RMK A01 T02290190  RH  079%=      5-min Rain = 0
KSC1 270654Z 14012KT 23/19 A2988 RMK A01 T02290191  RH  079%=      5-min Rain = 0
KSC1 270655Z 14011KT 23/19 A2988 RMK A01 T02300191  RH  079%=      5-min Rain = 0
KSC1 270656Z 15012KT 23/19 A2988 RMK A01 T02300191  RH  079%=      5-min Rain = 0
KSC1 270657Z 15014KT 23/19 A2988 RMK A01 T02290191  RH  079%=      5-min Rain = 0
KSC1 270658Z 15011KT 23/19 A2988 RMK A01 T02300191  RH  079%=      5-min Rain = 0
KSC1 270659Z 14011KT 23/19 A2988 RMK A01 T02300191  RH  079%=      5-min Rain = 0
KSC1 270700Z 14012G18KT 23/19 A2988 RMK A01 T02300191  RH  079%=      5-min Rain = 0
KSC1 270701Z 14011KT 23/19 A2987 RMK A01 T02300192  RH  079%=      5-min Rain = 0
KSC1 270702Z 15013KT 23/19 A2988 RMK A01 T02300192  RH  079%=      5-min Rain = 0
KSC1 270703Z 15012KT 23/19 A2987 RMK A01 T02300192  RH  079%=      5-min Rain = 0
KSC1 270704Z 15013KT 23/19 A2987 RMK A01 T02300192  RH  079%=      5-min Rain = 0
KSC1 270705Z 14009KT 23/19 A2987 RMK A01 T02300192  RH  079%=      5-min Rain = 0
KSC1 270706Z 15008KT 23/19 A2987 RMK A01 T02290192  RH  079%=      5-min Rain = 0
KSC1 270707Z 13010G16KT 23/19 A2987 RMK A01 T02280192  RH  080%=      5-min Rain = 0
KSC1 270708Z 14012KT 23/19 A2987 RMK A01 T02280192  RH  080%=      5-min Rain = 0
KSC1 270709Z 14011KT 23/19 A2987 RMK A01 T02290192  RH  080%=      5-min Rain = 0
KSC1 270710Z 14011KT 23/19 A2987 RMK A01 T02290192  RH  080%=      5-min Rain = 0
KSC1 270711Z 14012KT 23/19 A2987 RMK A01 T02290192  RH  080%=      5-min Rain = 0
KSC1 270712Z 14011KT 23/19 A2987 RMK A01 T02290193  RH  080%=      5-min Rain = 0
KSC1 270713Z 15013KT 23/19 A2987 RMK A01 T02290193  RH  080%=      5-min Rain = 0
KSC1 270714Z 13012KT 23/19 A2987 RMK A01 T02290193  RH  080%=      5-min Rain = 0
KSC1 270715Z 14011G17KT 23/19 A2987 RMK A01 T02290193  RH  080%=      5-min Rain = 0
KSC1 270716Z 14013KT 23/19 A2987 RMK A01 T02290193  RH  080%=      5-min Rain = 0
KSC1 270717Z 13008KT 23/19 A2987 RMK A01 T02290193  RH  080%=      5-min Rain = 0
KSC1 270718Z 14010KT 23/19 A2987 RMK A01 T02290193  RH  080%=      5-min Rain = 0
KSC1 270719Z 14012KT 23/19 A2987 RMK A01 T02280193  RH  081%=      5-min Rain = 0
KSC1 270720Z 14010KT 23/19 A2987 RMK A01 T02280193  RH  081%=      5-min Rain = 0
KSC1 270721Z 14012KT 23/19 A2987 RMK A01 T02280194  RH  081%=      5-min Rain = 0
KSC1 270722Z 14010KT 23/19 A2987 RMK A01 T02280194  RH  081%=      5-min Rain = 0
KSC1 270723Z 14012KT 23/19 A2987 RMK A01 T02270194  RH  081%=      5-min Rain = 0
KSC1 270724Z 14009KT 23/19 A2987 RMK A01 T02270194  RH  081%=      5-min Rain = 0
KSC1 270725Z 14012KT 23/19 A2987 RMK A01 T02270194  RH  081%=      5-min Rain = 0
KSC1 270726Z 14011KT 23/19 A2987 RMK A01 T02270194  RH  081%=      5-min Rain = 0
KSC1 270727Z 14011KT 23/19 A2987 RMK A01 T02270194  RH  081%=      5-min Rain = 0
KSC1 270728Z 14011KT 23/19 A2987 RMK A01 T02270194  RH  081%=      5-min Rain = 0
KSC1 270729Z 14012KT 23/19 A2987 RMK A01 T02270194  RH  082%=      5-min Rain = 0
KSC1 270730Z 14012KT 23/19 A2987 RMK A01 T02270194  RH  082%=      5-min Rain = 0
KSC1 270731Z 15010KT 23/19 A2987 RMK A01 T02270194  RH  081%=      5-min Rain = 0
KSC1 270732Z 14010G16KT 23/19 A2987 RMK A01 T02270194  RH  081%=      5-min Rain = 0
KSC1 270733Z 14008G13KT 23/19 A2987 RMK A01 T02270194  RH  082%=      5-min Rain = 0
KSC1 270734Z 14009KT 23/20 A2987 RMK A01 T02270195  RH  082%=      5-min Rain = 0
KSC1 270735Z 15011G16KT 23/19 A2987 RMK A01 T02270194  RH  082%=      5-min Rain = 0
KSC1 270736Z 14010KT 23/20 A2987 RMK A01 T02260195  RH  082%=      5-min Rain = 0
KSC1 270737Z 14009KT 23/20 A2987 RMK A01 T02260195  RH  082%=      5-min Rain = 0
KSC1 270738Z 14008KT 23/20 A2987 RMK A01 T02260195  RH  082%=      5-min Rain = 0
KSC1 270739Z 14012KT 23/20 A2987 RMK A01 T02260195  RH  083%=      5-min Rain = 0
KSC1 270740Z 14011G16KT 23/20 A2987 RMK A01 T02260195  RH  083%=      5-min Rain = 0
KSC1 270741Z 14009KT 23/20 A2987 RMK A01 T02260195  RH  082%=      5-min Rain = 0
KSC1 270742Z 14009KT 23/20 A2987 RMK A01 T02260195  RH  082%=      5-min Rain = 0
KSC1 270743Z 14009KT 23/20 A2987 RMK A01 T02260195  RH  083%=      5-min Rain = 0
KSC1 270744Z 14006KT 23/20 A2987 RMK A01 T02260195  RH  083%=      5-min Rain = 0
KSC1 270745Z 14006KT 23/20 A2987 RMK A01 T02250195  RH  083%=      5-min Rain = 0
KSC1 270746Z 14009KT 22/20 A2987 RMK A01 T02240195  RH  084%=      5-min Rain = 0
KSC1 270747Z 14008KT 22/20 A2987 RMK A01 T02240195  RH  084%=      5-min Rain = 0
KSC1 270748Z 14008KT 22/20 A2987 RMK A01 T02240195  RH  084%=      5-min Rain = 0
KSC1 270749Z 14007KT 22/20 A2987 RMK A01 T02240196  RH  084%=      5-min Rain = 0
KSC1 270750Z 14007KT 22/20 A2987 RMK A01 T02240196  RH  084%=      5-min Rain = 0
KSC1 270751Z 14009KT 22/20 A2987 RMK A01 T02240196  RH  084%=      5-min Rain = 0
KSC1 270752Z 13009KT 22/20 A2987 RMK A01 T02240196  RH  084%=      5-min Rain = 0
KSC1 270753Z 14006KT 22/20 A2987 RMK A01 T02240196  RH  084%=      5-min Rain = 0
KSC1 270754Z 14007KT 23/20 A2987 RMK A01 T02250196  RH  084%=      5-min Rain = 0
KSC1 270755Z 14007KT 22/20 A2987 RMK A01 T02240196  RH  084%=      5-min Rain = 0
KSC1 270756Z 14007KT 22/20 A2987 RMK A01 T02240196  RH  084%=      5-min Rain = 0
KSC1 270757Z 14009KT 22/20 A2987 RMK A01 T02240196  RH  084%=      5-min Rain = 0
KSC1 270758Z 13007KT 22/20 A2987 RMK A01 T02240196  RH  084%=      5-min Rain = 0
KSC1 270759Z 14008KT 22/20 A2987 RMK A01 T02240196  RH  084%=      5-min Rain = 0
KSC1 270800Z 13009KT 22/20 A2987 RMK A01 T02230196  RH  085%=      5-min Rain = 0
KSC1 270801Z 14007KT 22/20 A2987 RMK A01 T02230196  RH  085%=      5-min Rain = 0
KSC1 270802Z 14010KT 22/20 A2987 RMK A01 T02230197  RH  085%=      5-min Rain = 0
KSC1 270803Z 15009KT 22/20 A2987 RMK A01 T02230196  RH  084%=      5-min Rain = 0
KSC1 270804Z 14007KT 22/20 A2987 RMK A01 T02240196  RH  084%=      5-min Rain = 0
KSC1 270805Z 13007KT 22/20 A2987 RMK A01 T02240196  RH  084%=      5-min Rain = 0
KSC1 270806Z 14008G13KT 22/20 A2987 RMK A01 T02240196  RH  084%=      5-min Rain = 0
KSC1 270807Z 14008KT 22/20 A2987 RMK A01 T02230196  RH  085%=      5-min Rain = 0
KSC1 270808Z 13008KT 22/20 A2987 RMK A01 T02230197  RH  085%=      5-min Rain = 0
KSC1 270809Z 14008KT 22/20 A2987 RMK A01 T02230197  RH  085%=      5-min Rain = 0
KSC1 270810Z 14010KT 22/20 A2987 RMK A01 T02230196  RH  085%=      5-min Rain = 0
KSC1 270811Z 13007KT 22/20 A2987 RMK A01 T02230196  RH  085%=      5-min Rain = 0
KSC1 270812Z 13008KT 22/20 A2987 RMK A01 T02230196  RH  085%=      5-min Rain = 0
KSC1 270813Z 13007KT 22/20 A2987 RMK A01 T02230196  RH  085%=      5-min Rain = 0
KSC1 270814Z 13007KT 22/20 A2987 RMK A01 T02220196  RH  085%=      5-min Rain = 0
KSC1 270815Z 14006KT 22/20 A2987 RMK A01 T02220197  RH  086%=      5-min Rain = 0
KSC1 270816Z 14007KT 22/20 A2987 RMK A01 T02210197  RH  086%=      5-min Rain = 0
KSC1 270817Z 13006KT 22/20 A2987 RMK A01 T02210197  RH  086%=      5-min Rain = 0
KSC1 270818Z 12006KT 22/20 A2987 RMK A01 T02200197  RH  087%=      5-min Rain = 0
KSC1 270819Z 13009KT 22/20 A2987 RMK A01 T02200198  RH  087%=      5-min Rain = 0
KSC1 270820Z 14008KT 22/20 A2987 RMK A01 T02200198  RH  087%=      5-min Rain = 0
KSC1 270821Z 13008KT 22/20 A2986 RMK A01 T02200197  RH  087%=      5-min Rain = 0
KSC1 270822Z 13009KT 22/20 A2986 RMK A01 T02210197  RH  086%=      5-min Rain = 0
KSC1 270823Z 13007KT 22/20 A2987 RMK A01 T02210197  RH  086%=      5-min Rain = 0
KSC1 270824Z 13007KT 22/20 A2987 RMK A01 T02210197  RH  086%=      5-min Rain = 0
KSC1 270825Z 13008KT 22/20 A2987 RMK A01 T02210198  RH  087%=      5-min Rain = 0
KSC1 270826Z 13007KT 22/20 A2987 RMK A01 T02200197  RH  087%=      5-min Rain = 0
KSC1 270827Z 13008KT 22/20 A2987 RMK A01 T02200197  RH  087%=      5-min Rain = 0
KSC1 270828Z 12006KT 22/20 A2987 RMK A01 T02190197  RH  087%=      5-min Rain = 0
KSC1 270829Z 13007KT 22/20 A2987 RMK A01 T02190197  RH  087%=      5-min Rain = 0
KSC1 270830Z 12008KT 22/20 A2987 RMK A01 T02180198  RH  088%=      5-min Rain = 0
KSC1 270831Z 13008G13KT 22/20 A2986 RMK A01 T02180198  RH  088%=      5-min Rain = 0
KSC1 270832Z 13007KT 22/20 A2986 RMK A01 T02180198  RH  088%=      5-min Rain = 0
KSC1 270833Z 13007KT 22/20 A2986 RMK A01 T02180198  RH  088%=      5-min Rain = 0
KSC1 270834Z 13009KT 22/20 A2987 RMK A01 T02180198  RH  088%=      5-min Rain = 0
KSC1 270835Z 13007KT 22/20 A2987 RMK A01 T02190198  RH  088%=      5-min Rain = 0
KSC1 270836Z 13008KT 22/20 A2987 RMK A01 T02190197  RH  088%=      5-min Rain = 0
KSC1 270837Z 14008KT 22/20 A2987 RMK A01 T02190197  RH  087%=      5-min Rain = 0
KSC1 270838Z 13007KT 22/20 A2987 RMK A01 T02200197  RH  087%=      5-min Rain = 0
KSC1 270839Z 14007KT 22/20 A2987 RMK A01 T02200196  RH  086%=      5-min Rain = 0
KSC1 270840Z 14008KT 22/20 A2987 RMK A01 T02200196  RH  086%=      5-min Rain = 0
KSC1 270841Z 14009KT 22/20 A2987 RMK A01 T02200196  RH  086%=      5-min Rain = 0
KSC1 270842Z 13007KT 22/20 A2987 RMK A01 T02200196  RH  086%=      5-min Rain = 0
KSC1 270843Z 13009KT 22/20 A2987 RMK A01 T02200195  RH  086%=      5-min Rain = 0
KSC1 270844Z 14011KT 22/20 A2987 RMK A01 T02210195  RH  086%=      5-min Rain = 0
KSC1 270845Z 14010KT 22/20 A2987 RMK A01 T02210195  RH  085%=      5-min Rain = 0
KSC1 270846Z 14009KT 22/20 A2987 RMK A01 T02210195  RH  085%=      5-min Rain = 0
KSC1 270847Z 14009KT 22/19 A2987 RMK A01 T02220194  RH  085%=      5-min Rain = 0
KSC1 270848Z 14008KT 22/19 A2987 RMK A01 T02220194  RH  084%=      5-min Rain = 0
KSC1 270849Z 13007KT 22/20 A2987 RMK A01 T02220195  RH  085%=      5-min Rain = 0
KSC1 270850Z 14007KT 22/19 A2987 RMK A01 T02210194  RH  085%=      5-min Rain = 0
KSC1 270851Z 14010KT 22/19 A2986 RMK A01 T02200194  RH  085%=      5-min Rain = 0
KSC1 270852Z 14008KT 22/20 A2987 RMK A01 T02200195  RH  085%=      5-min Rain = 0
KSC1 270853Z 13007KT 22/19 A2987 RMK A01 T02210194  RH  085%=      5-min Rain = 0
KSC1 270854Z 13006KT 22/19 A2987 RMK A01 T02200194  RH  085%=      5-min Rain = 0
KSC1 270855Z 14009KT 22/19 A2987 RMK A01 T02200194  RH  085%=      5-min Rain = 0
KSC1 270856Z 15010KT 22/19 A2987 RMK A01 T02200194  RH  085%=      5-min Rain = 0
KSC1 270857Z 15008G13KT 22/19 A2987 RMK A01 T02200194  RH  085%=      5-min Rain = 0
KSC1 270858Z 13007KT 22/19 A2987 RMK A01 T02200194  RH  085%=      5-min Rain = 0
KSC1 270859Z 14008KT 22/19 A2987 RMK A01 T02200194  RH  085%=      5-min Rain = 0
KSC1 270900Z 14007KT 22/19 A2987 RMK A01 T02200194  RH  085%=      5-min Rain = 0
KSC1 270901Z 14010KT 22/19 A2987 RMK A01 T02200194  RH  085%=      5-min Rain = 0
KSC1 270902Z 13008KT 22/19 A2987 RMK A01 T02200194  RH  085%=      5-min Rain = 0
KSC1 270903Z 14010G17KT 22/19 A2986 RMK A01 T02200194  RH  085%=      5-min Rain = 0
KSC1 270904Z 15013KT 22/19 A2986 RMK A01 T02200193  RH  085%=      5-min Rain = 0
KSC1 270905Z 13009KT 22/19 A2986 RMK A01 T02220193  RH  084%=      5-min Rain = 0
KSC1 270906Z 14010KT 22/19 A2987 RMK A01 T02220192  RH  084%=      5-min Rain = 0
KSC1 270907Z 14009KT 22/19 A2987 RMK A01 T02220193  RH  083%=      5-min Rain = 0
KSC1 270908Z 15009KT 22/19 A2987 RMK A01 T02220192  RH  083%=      5-min Rain = 0
KSC1 270909Z 15011G16KT 22/19 A2987 RMK A01 T02220192  RH  083%=      5-min Rain = 0
KSC1 270910Z 16013KT 22/19 A2987 RMK A01 T02210192  RH  083%=      5-min Rain = 0
KSC1 270911Z 14009KT 22/19 A2987 RMK A01 T02220192  RH  083%=      5-min Rain = 0
KSC1 270912Z 14010KT 22/19 A2987 RMK A01 T02220192  RH  083%=      5-min Rain = 0
KSC1 270913Z 13011G16KT 22/19 A2986 RMK A01 T02220192  RH  083%=      5-min Rain = 0
KSC1 270914Z 13009KT 22/19 A2986 RMK A01 T02220191  RH  083%=      5-min Rain = 0
KSC1 270915Z 14008KT 22/19 A2986 RMK A01 T02220192  RH  083%=      5-min Rain = 0
KSC1 270916Z 14011KT 22/19 A2986 RMK A01 T02210191  RH  083%=      5-min Rain = 0
KSC1 270917Z 13008KT 22/19 A2986 RMK A01 T02200192  RH  084%=      5-min Rain = 0
KSC1 270918Z 14011KT 22/19 A2986 RMK A01 T02200192  RH  084%=      5-min Rain = 0
KSC1 270919Z 13007KT 22/19 A2987 RMK A01 T02200192  RH  084%=      5-min Rain = 0
KSC1 270920Z 13010KT 22/19 A2987 RMK A01 T02200192  RH  084%=      5-min Rain = 0
KSC1 270921Z 14009KT 22/19 A2987 RMK A01 T02200192  RH  084%=      5-min Rain = 0
KSC1 270922Z 14012KT 22/19 A2987 RMK A01 T02200192  RH  084%=      5-min Rain = 0
KSC1 270923Z 14010KT 22/19 A2987 RMK A01 T02200191  RH  084%=      5-min Rain = 0
KSC1 270924Z 14008KT 22/19 A2987 RMK A01 T02200191  RH  084%=      5-min Rain = 0
KSC1 270925Z 14009KT 22/19 A2987 RMK A01 T02200191  RH  084%=      5-min Rain = 0
KSC1 270926Z 15006KT 22/19 A2988 RMK A01 T02200192  RH  084%=      5-min Rain = 0
KSC1 270927Z 15005KT 22/19 A2988 RMK A01 T02200191  RH  084%=      5-min Rain = 0
KSC1 270928Z 17004KT 22/19 A2988 RMK A01 T02200192  RH  084%=      5-min Rain = 0
KSC1 270929Z 16008KT 22/19 A2989 RMK A01 T02190192  RH  084%=      5-min Rain = 0
KSC1 270930Z 22005KT 22/19 A299 RMK A01 T02190192  RH  085%=      5-min Rain = 0
KSC1 270931Z 26006KT 22/19 A299 RMK A01 T02190192  RH  085%=      5-min Rain = 0
KSC1 270932Z 28007KT 22/19 A2991 RMK A01 T02190192  RH  085%=      5-min Rain = 0
KSC1 270933Z 27008KT 22/19 A2991 RMK A01 T02200193  RH  085%=      5-min Rain = 0
KSC1 270934Z 26009KT 22/19 A2991 RMK A01 T02190193  RH  085%=      5-min Rain = 0
KSC1 270935Z 27009KT 22/19 A2991 RMK A01 T02190193  RH  085%=      5-min Rain = 0
KSC1 270936Z 29010KT 22/19 A2992 RMK A01 T02200194  RH  085%=      5-min Rain = 0
KSC1 270937Z 28008KT 22/20 A2992 RMK A01 T02200195  RH  086%=      5-min Rain = 0
KSC1 270938Z 28007KT 22/20 A2992 RMK A01 T02200195  RH  086%=      5-min Rain = 0
KSC1 270939Z 26006KT 22/20 A2991 RMK A01 T02200195  RH  085%=      5-min Rain = 0
KSC1 270940Z 24004KT 22/20 A2991 RMK A01 T02210195  RH  085%=      5-min Rain = 0
KSC1 270941Z 23005KT 22/19 A2991 RMK A01 T02200194  RH  085%=      5-min Rain = 0
KSC1 270942Z 22007KT 22/19 A2991 RMK A01 T02200194  RH  085%=      5-min Rain = 0
KSC1 270943Z 20008KT 22/19 A299 RMK A01 T02210193  RH  084%=      5-min Rain = 0
KSC1 270944Z 20008KT 22/19 A299 RMK A01 T02220192  RH  083%=      5-min Rain = 0
KSC1 270945Z 17005KT 22/19 A299 RMK A01 T02220192  RH  083%=      5-min Rain = 0
KSC1 270946Z 16006KT 22/19 A299 RMK A01 T02220193  RH  083%=      5-min Rain = 0
KSC1 270947Z 16008KT 22/19 A299 RMK A01 T02220193  RH  083%=      5-min Rain = 0
KSC1 270948Z 17009KT 22/19 A299 RMK A01 T02220192  RH  083%=      5-min Rain = 0
KSC1 270949Z 18008KT 22/19 A299 RMK A01 T02220192  RH  083%=      5-min Rain = 0
KSC1 270950Z 18006KT 22/19 A299 RMK A01 T02220192  RH  083%=      5-min Rain = 0
KSC1 270951Z 20006KT 22/19 A2991 RMK A01 T02220192  RH  083%=      5-min Rain = 0
KSC1 270952Z 21005KT 22/19 A2991 RMK A01 T02220193  RH  084%=      5-min Rain = 0
KSC1 270953Z 21007KT 22/19 A2991 RMK A01 T02220193  RH  084%=      5-min Rain = 0
KSC1 270954Z 21007KT 22/19 A2991 RMK A01 T02210193  RH  084%=      5-min Rain = 0
KSC1 270955Z 20008KT 22/19 A2991 RMK A01 T02210193  RH  084%=      5-min Rain = 0
KSC1 270956Z 19008KT 22/19 A2991 RMK A01 T02210192  RH  083%=      5-min Rain = 0
KSC1 270957Z 18006KT 22/19 A299 RMK A01 T02210192  RH  083%=      5-min Rain = 0
KSC1 270958Z 16007KT 22/19 A299 RMK A01 T02220192  RH  083%=      5-min Rain = 0
KSC1 270959Z 17007G13KT 22/19 A299 RMK A01 T02210192  RH  084%=      5-min Rain = 0
KSC1 271000Z 18010KT 22/19 A299 RMK A01 T02210192  RH  084%=      5-min Rain = 0
KSC1 271001Z 17009KT 22/19 A299 RMK A01 T02210192  RH  083%=      5-min Rain = 0
KSC1 271002Z 19010KT 22/19 A299 RMK A01 T02210191  RH  083%=      5-min Rain = 0
KSC1 271003Z 19008KT 22/19 A299 RMK A01 T02210191  RH  083%=      5-min Rain = 0
KSC1 271004Z 19008G13KT 22/19 A299 RMK A01 T02210191  RH  083%=      5-min Rain = 0
KSC1 271005Z 20008KT 22/19 A2991 RMK A01 T02210191  RH  083%=      5-min Rain = 0
KSC1 271006Z 20008KT 22/19 A2991 RMK A01 T02210191  RH  083%=      5-min Rain = 0
KSC1 271007Z 19006G11KT 22/19 A2991 RMK A01 T02210191  RH  083%=      5-min Rain = 0
KSC1 271008Z 19010KT 22/19 A2991 RMK A01 T02210191  RH  083%=      5-min Rain = 0
KSC1 271009Z 18008KT 22/19 A2991 RMK A01 T02210191  RH  083%=      5-min Rain = 0
KSC1 271010Z 18006KT 22/19 A2991 RMK A01 T02210191  RH  083%=      5-min Rain = 0
KSC1 271011Z 18007KT 22/19 A2991 RMK A01 T02210192  RH  083%=      5-min Rain = 0
KSC1 271012Z 17009KT 22/19 A299 RMK A01 T02200191  RH  084%=      5-min Rain = 0
KSC1 271013Z 18008G15KT 22/19 A2991 RMK A01 T02200192  RH  084%=      5-min Rain = 0
KSC1 271014Z 18010KT 22/19 A2991 RMK A01 T02200191  RH  083%=      5-min Rain = 0
KSC1 271015Z 19007KT 22/19 A2991 RMK A01 T02210191  RH  083%=      5-min Rain = 0
KSC1 271016Z 18008KT 22/19 A2991 RMK A01 T02210191  RH  083%=      5-min Rain = 0
KSC1 271017Z 18009KT 22/19 A2991 RMK A01 T02200191  RH  083%=      5-min Rain = 0
KSC1 271018Z 18006KT 22/19 A2991 RMK A01 T02210191  RH  083%=      5-min Rain = 0
KSC1 271019Z 18004KT 22/19 A2991 RMK A01 T02200191  RH  083%=      5-min Rain = 0
KSC1 271020Z 18005KT 22/19 A2991 RMK A01 T02200191  RH  084%=      5-min Rain = 0
KSC1 271021Z 17010KT 22/19 A2991 RMK A01 T02200192  RH  084%=      5-min Rain = 0
KSC1 271022Z 18009KT 22/19 A2991 RMK A01 T02200191  RH  083%=      5-min Rain = 0
KSC1 271023Z 17008KT 22/19 A2991 RMK A01 T02200191  RH  083%=      5-min Rain = 0
KSC1 271024Z 18009KT 22/19 A299 RMK A01 T02200190  RH  083%=      5-min Rain = 0
KSC1 271025Z 18009KT 22/19 A2991 RMK A01 T02200190  RH  083%=      5-min Rain = 0
KSC1 271026Z 18009KT 22/19 A2991 RMK A01 T02200190  RH  083%=      5-min Rain = 0
KSC1 271027Z 18006KT 22/19 A2991 RMK A01 T02200190  RH  083%=      5-min Rain = 0
KSC1 271028Z 17007KT 22/19 A2991 RMK A01 T02200190  RH  083%=      5-min Rain = 0
KSC1 271029Z 19006KT 22/19 A2991 RMK A01 T02200190  RH  083%=      5-min Rain = 0
KSC1 271030Z 17008KT 22/19 A2991 RMK A01 T02200190  RH  083%=      5-min Rain = 0
KSC1 271031Z 17008KT 22/19 A2991 RMK A01 T02200190  RH  083%=      5-min Rain = 0
KSC1 271032Z 17009KT 22/19 A2991 RMK A01 T02200190  RH  083%=      5-min Rain = 0
KSC1 271033Z 18007KT 22/19 A2991 RMK A01 T02200191  RH  084%=      5-min Rain = 0
KSC1 271034Z 18007KT 22/19 A2991 RMK A01 T02200191  RH  084%=      5-min Rain = 0
KSC1 271035Z 16008KT 22/19 A2991 RMK A01 T02200191  RH  084%=      5-min Rain = 0
KSC1 271036Z 16007KT 22/19 A2991 RMK A01 T02200191  RH  084%=      5-min Rain = 0
KSC1 271037Z 17006KT 22/19 A2991 RMK A01 T02200191  RH  084%=      5-min Rain = 0
KSC1 271038Z 18007KT 22/19 A2991 RMK A01 T02200191  RH  084%=      5-min Rain = 0
KSC1 271039Z 16004KT 22/19 A2991 RMK A01 T02200191  RH  084%=      5-min Rain = 0
KSC1 271040Z 18008KT 22/19 A2992 RMK A01 T02190191  RH  084%=      5-min Rain = 0
KSC1 271041Z 18007KT 22/19 A2992 RMK A01 T02190191  RH  084%=      5-min Rain = 0
KSC1 271042Z 17006KT 22/19 A2992 RMK A01 T02190191  RH  084%=      5-min Rain = 0
KSC1 271043Z 18007KT 22/19 A2992 RMK A01 T02200191  RH  084%=      5-min Rain = 0
KSC1 271044Z 17006KT 22/19 A2992 RMK A01 T02190191  RH  084%=      5-min Rain = 0
KSC1 271045Z 17006KT 22/19 A2992 RMK A01 T02200191  RH  084%=      5-min Rain = 0
KSC1 271046Z 17006KT 22/19 A2992 RMK A01 T02190191  RH  084%=      5-min Rain = 0
KSC1 271047Z 18005KT 22/19 A2992 RMK A01 T02200192  RH  084%=      5-min Rain = 0
KSC1 271048Z 17006KT 22/19 A2992 RMK A01 T02200192  RH  084%=      5-min Rain = 0
KSC1 271049Z 18005KT 22/19 A2992 RMK A01 T02190192  RH  084%=      5-min Rain = 0
KSC1 271050Z 17005KT 22/19 A2992 RMK A01 T02190191  RH  084%=      5-min Rain = 0
KSC1 271051Z 17007KT 22/19 A2992 RMK A01 T02190191  RH  084%=      5-min Rain = 0
KSC1 271052Z 17009KT 22/19 A2992 RMK A01 T02190192  RH  084%=      5-min Rain = 0
KSC1 271053Z 17008KT 22/19 A2992 RMK A01 T02190191  RH  084%=      5-min Rain = 0
KSC1 271054Z 16008KT 22/19 A2992 RMK A01 T02190191  RH  084%=      5-min Rain = 0
KSC1 271055Z 15005KT 22/19 A2991 RMK A01 T02190191  RH  084%=      5-min Rain = 0
KSC1 271056Z 15005KT 22/19 A2991 RMK A01 T02190192  RH  084%=      5-min Rain = 0
KSC1 271057Z 15006KT 22/19 A2992 RMK A01 T02190192  RH  085%=      5-min Rain = 0
KSC1 271058Z 17005KT 22/19 A2992 RMK A01 T02190192  RH  085%=      5-min Rain = 0
KSC1 271059Z 16006KT 22/19 A2992 RMK A01 T02180192  RH  085%=      5-min Rain = 0
KSC1 271100Z 17004KT 22/19 A2992 RMK A01 T02180192  RH  085%=      5-min Rain = 0
KSC1 271101Z 17005KT 22/19 A2992 RMK A01 T02180192  RH  085%=      5-min Rain = 0
KSC1 271102Z 17003KT 22/19 A2992 RMK A01 T02180192  RH  085%=      5-min Rain = 0
KSC1 271103Z 16005KT 22/19 A2992 RMK A01 T02180192  RH  086%=      5-min Rain = 0
KSC1 271104Z 15007KT 22/19 A2992 RMK A01 T02180193  RH  086%=      5-min Rain = 0
KSC1 271105Z 16007KT 22/19 A2992 RMK A01 T02180192  RH  085%=      5-min Rain = 0
KSC1 271106Z 15005KT 22/19 A2992 RMK A01 T02180192  RH  085%=      5-min Rain = 0
KSC1 271107Z 16006KT 22/19 A2992 RMK A01 T02180192  RH  085%=      5-min Rain = 0
KSC1 271108Z 17006KT 22/19 A2992 RMK A01 T02180192  RH  085%=      5-min Rain = 0
KSC1 271109Z 17006KT 22/19 A2992 RMK A01 T02180192  RH  085%=      5-min Rain = 0
KSC1 271110Z 17006KT 22/19 A2992 RMK A01 T02180192  RH  085%=      5-min Rain = 0
KSC1 271111Z 16008KT 22/19 A2992 RMK A01 T02180192  RH  085%=      5-min Rain = 0
KSC1 271112Z 16006KT 22/19 A2992 RMK A01 T02180191  RH  085%=      5-min Rain = 0
KSC1 271113Z 17006KT 22/19 A2992 RMK A01 T02180192  RH  085%=      5-min Rain = 0
KSC1 271114Z 16006KT 22/19 A2992 RMK A01 T02180192  RH  085%=      5-min Rain = 0
KSC1 271115Z 15006KT 22/19 A2992 RMK A01 T02180192  RH  085%=      5-min Rain = 0
KSC1 271116Z 17005KT 22/19 A2992 RMK A01 T02180192  RH  085%=      5-min Rain = 0
KSC1 271117Z 16005KT 22/19 A2992 RMK A01 T02180193  RH  086%=      5-min Rain = 0
KSC1 271118Z 15005KT 22/19 A2992 RMK A01 T02170193  RH  086%=      5-min Rain = 0
KSC1 271119Z 16005KT 22/19 A2992 RMK A01 T02170193  RH  086%=      5-min Rain = 0
KSC1 271120Z 15005KT 22/19 A2992 RMK A01 T02170193  RH  086%=      5-min Rain = 0
KSC1 271121Z 16005KT 22/19 A2992 RMK A01 T02170193  RH  086%=      5-min Rain = 0
KSC1 271122Z 16005KT 22/19 A2992 RMK A01 T02170193  RH  086%=      5-min Rain = 0
KSC1 271123Z 16005KT 22/19 A2992 RMK A01 T02170193  RH  086%=      5-min Rain = 0
KSC1 271124Z 16005KT 22/19 A2992 RMK A01 T02170193  RH  086%=      5-min Rain = 0
KSC1 271125Z 15005KT 22/19 A2992 RMK A01 T02170193  RH  086%=      5-min Rain = 0
KSC1 271126Z 16005KT 22/19 A2992 RMK A01 T02170193  RH  086%=      5-min Rain = 0
KSC1 271127Z 16005KT 22/19 A2992 RMK A01 T02170193  RH  086%=      5-min Rain = 0
KSC1 271128Z 15005KT 22/19 A2992 RMK A01 T02170193  RH  086%=      5-min Rain = 0
KSC1 271129Z 15005KT 22/19 A2992 RMK A01 T02170193  RH  086%=      5-min Rain = 0
KSC1 271130Z 15006KT 22/19 A2992 RMK A01 T02170193  RH  086%=      5-min Rain = 0
KSC1 271131Z 15006KT 22/19 A2992 RMK A01 T02170193  RH  086%=      5-min Rain = 0
KSC1 271132Z 15008KT 22/19 A2992 RMK A01 T02170193  RH  086%=      5-min Rain = 0
KSC1 271133Z 15011KT 22/19 A2992 RMK A01 T02170192  RH  086%=      5-min Rain = 0
KSC1 271134Z 15008G13KT 22/19 A2992 RMK A01 T02170191  RH  086%=      5-min Rain = 0
KSC1 271135Z 16009KT 22/19 A2992 RMK A01 T02170191  RH  085%=      5-min Rain = 0
KSC1 271136Z 15007KT 22/19 A2992 RMK A01 T02170191  RH  085%=      5-min Rain = 0
KSC1 271137Z 15008KT 22/19 A2992 RMK A01 T02170192  RH  085%=      5-min Rain = 0
KSC1 271138Z 16007KT 22/19 A2992 RMK A01 T02170192  RH  085%=      5-min Rain = 0
KSC1 271139Z 16009KT 22/19 A2992 RMK A01 T02170192  RH  085%=      5-min Rain = 0
KSC1 271140Z 16007KT 22/19 A2992 RMK A01 T02170191  RH  085%=      5-min Rain = 0
KSC1 271141Z 16006KT 22/19 A2992 RMK A01 T02170191  RH  085%=      5-min Rain = 0
KSC1 271142Z 16008KT 22/19 A2992 RMK A01 T02170191  RH  085%=      5-min Rain = 0
KSC1 271143Z 16008KT 22/19 A2992 RMK A01 T02170191  RH  085%=      5-min Rain = 0
KSC1 271144Z 15007KT 22/19 A2992 RMK A01 T02170191  RH  085%=      5-min Rain = 0
KSC1 271145Z 15007KT 22/19 A2992 RMK A01 T02170191  RH  085%=      5-min Rain = 0
KSC1 271146Z 16008KT 22/19 A2992 RMK A01 T02170191  RH  085%=      5-min Rain = 0
KSC1 271147Z 16007KT 22/19 A2992 RMK A01 T02170191  RH  085%=      5-min Rain = 0
KSC1 271148Z 16009KT 22/19 A2992 RMK A01 T02170191  RH  085%=      5-min Rain = 0
KSC1 271149Z 16008KT 22/19 A2991 RMK A01 T02170191  RH  085%=      5-min Rain = 0
KSC1 271150Z 16006KT 22/19 A2991 RMK A01 T02170191  RH  085%=      5-min Rain = 0
KSC1 271151Z 15006KT 22/19 A2991 RMK A01 T02170191  RH  085%=      5-min Rain = 0
KSC1 271152Z 15006KT 22/19 A2991 RMK A01 T02170191  RH  085%=      5-min Rain = 0
KSC1 271153Z 16008KT 22/19 A2991 RMK A01 T02160191  RH  085%=      5-min Rain = 0
KSC1 271154Z 15007KT 22/19 A2991 RMK A01 T02160191  RH  085%=      5-min Rain = 0
KSC1 271155Z 16008KT 22/19 A2991 RMK A01 T02160191  RH  085%=      5-min Rain = 0
KSC1 271156Z 15009KT 22/19 A2991 RMK A01 T02170191  RH  085%=      5-min Rain = 0
KSC1 271157Z 15009KT 22/19 A2991 RMK A01 T02160190  RH  085%=      5-min Rain = 0
KSC1 271158Z 15008KT 22/19 A2991 RMK A01 T02160190  RH  085%=      5-min Rain = 0
KSC1 271159Z 15011KT 22/19 A2991 RMK A01 T02160190  RH  085%=      5-min Rain = 0
KSC1 271200Z 15009KT 22/19 A2991 RMK A01 T02160190  RH  085%=      5-min Rain = 0
KSC1 271201Z 15010KT 22/19 A2991 RMK A01 T02160190  RH  085%=      5-min Rain = 0
KSC1 271202Z 15009KT 22/19 A2991 RMK A01 T02160190  RH  085%=      5-min Rain = 0
KSC1 271203Z 16009KT 22/19 A2991 RMK A01 T02160190  RH  085%=      5-min Rain = 0
KSC1 271204Z 15011KT 22/19 A2991 RMK A01 T02160190  RH  085%=      5-min Rain = 0
KSC1 271205Z 15012KT 22/19 A2991 RMK A01 T02160190  RH  085%=      5-min Rain = 0
KSC1 271206Z 15010KT 22/19 A2991 RMK A01 T02160190  RH  085%=      5-min Rain = 0
KSC1 271207Z 15011G16KT 22/19 A2991 RMK A01 T02160190  RH  085%=      5-min Rain = 0
KSC1 271208Z 16011KT 22/19 A2991 RMK A01 T02160189  RH  085%=      5-min Rain = 0
KSC1 271209Z 16010KT 22/19 A2991 RMK A01 T02160189  RH  085%=      5-min Rain = 0
KSC1 271210Z 16013KT 22/19 A2991 RMK A01 T02160189  RH  085%=      5-min Rain = 0
KSC1 271211Z 15012KT 22/19 A2991 RMK A01 T02160189  RH  085%=      5-min Rain = 0
KSC1 271212Z 16015KT 22/19 A2991 RMK A01 T02160189  RH  085%=      5-min Rain = 0
KSC1 271213Z 16012KT 22/19 A2991 RMK A01 T02160189  RH  084%=      5-min Rain = 0
KSC1 271214Z 15013KT 22/19 A2991 RMK A01 T02160189  RH  084%=      5-min Rain = 0
KSC1 271215Z 15011KT 22/19 A2991 RMK A01 T02160189  RH  085%=      5-min Rain = 0
KSC1 271216Z 16012KT 22/19 A2991 RMK A01 T02160189  RH  085%=      5-min Rain = 0
KSC1 271217Z 16012G17KT 22/19 A2992 RMK A01 T02160189  RH  085%=      5-min Rain = 0
KSC1 271218Z 16014KT 22/19 A2991 RMK A01 T02160189  RH  085%=      5-min Rain = 0
KSC1 271219Z 16012KT 22/19 A2992 RMK A01 T02160189  RH  085%=      5-min Rain = 0
KSC1 271220Z 16012G17KT 22/19 A2991 RMK A01 T02160189  RH  085%=      5-min Rain = 0
KSC1 271221Z 15012KT 22/19 A2991 RMK A01 T02150189  RH  085%=      5-min Rain = 0
KSC1 271222Z 16013KT 22/19 A2991 RMK A01 T02150189  RH  085%=      5-min Rain = 0
KSC1 271223Z 16010G15KT 22/19 A2991 RMK A01 T02150189  RH  085%=      5-min Rain = 0
KSC1 271224Z 15011KT 22/19 A2991 RMK A01 T02150190  RH  085%=      5-min Rain = 0
KSC1 271225Z 16010KT 22/19 A2991 RMK A01 T02150190  RH  085%=      5-min Rain = 0
KSC1 271226Z 16012KT 22/19 A2991 RMK A01 T02150190  RH  085%=      5-min Rain = 0
KSC1 271227Z 16015KT 22/19 A2991 RMK A01 T02150190  RH  085%=      5-min Rain = 0
KSC1 271228Z 16012KT 22/19 A2991 RMK A01 T02150189  RH  085%=      5-min Rain = 0
KSC1 271229Z 15012KT 22/19 A2991 RMK A01 T02150190  RH  086%=      5-min Rain = 0
KSC1 271230Z 16014KT 22/19 A2991 RMK A01 T02150190  RH  086%=      5-min Rain = 0
KSC1 271231Z 16016G21KT 21/19 A2991 RMK A01 T02140189  RH  085%=      5-min Rain = 0
KSC1 271232Z 16011KT 21/19 A2991 RMK A01 T02140189  RH  085%=      5-min Rain = 0
KSC1 271233Z 16012KT 22/19 A2991 RMK A01 T02150189  RH  085%=      5-min Rain = 0
KSC1 271234Z 16016KT 21/19 A2991 RMK A01 T02140189  RH  085%=      5-min Rain = 0
KSC1 271235Z 16015G21KT 21/19 A2991 RMK A01 T02140188  RH  085%=      5-min Rain = 0
KSC1 271236Z 16011KT 22/19 A2991 RMK A01 T02150189  RH  085%=      5-min Rain = 0
KSC1 271237Z 16015KT 21/19 A2991 RMK A01 T02140189  RH  085%=      5-min Rain = 0
KSC1 271238Z 16015G21KT 21/19 A2991 RMK A01 T02140188  RH  085%=      5-min Rain = 0
KSC1 271239Z 16015G20KT 21/19 A2991 RMK A01 T02140188  RH  085%=      5-min Rain = 0
KSC1 271240Z 16016KT 21/19 A2991 RMK A01 T02140188  RH  085%=      5-min Rain = 0
KSC1 271241Z 16017KT 21/19 A2991 RMK A01 T02130188  RH  085%=      5-min Rain = 0
KSC1 271242Z 16017G22KT 21/19 A2991 RMK A01 T02140187  RH  085%=      5-min Rain = 0
KSC1 271243Z 16016KT 21/19 A2991 RMK A01 T02140187  RH  085%=      5-min Rain = 0
KSC1 271244Z 16016KT 21/19 A2991 RMK A01 T02140187  RH  085%=      5-min Rain = 0
KSC1 271245Z 16017KT 21/19 A2991 RMK A01 T02140187  RH  085%=      5-min Rain = 0
KSC1 271246Z 16017KT 21/19 A2991 RMK A01 T02140187  RH  085%=      5-min Rain = 0
KSC1 271247Z 16013KT 21/19 A2991 RMK A01 T02140187  RH  084%=      5-min Rain = 0
KSC1 271248Z 15013G18KT 21/19 A2991 RMK A01 T02140187  RH  085%=      5-min Rain = 0
KSC1 271249Z 17015G21KT 21/19 A2991 RMK A01 T02140187  RH  085%=      5-min Rain = 0
KSC1 271250Z 16016KT 21/19 A2991 RMK A01 T02140187  RH  084%=      5-min Rain = 0
KSC1 271251Z 16013KT 21/19 A2991 RMK A01 T02140187  RH  084%=      5-min Rain = 0
KSC1 271252Z 16014G21KT 22/19 A2991 RMK A01 T02150187  RH  084%=      5-min Rain = 0
KSC1 271253Z 16014KT 22/19 A2991 RMK A01 T02150187  RH  084%=      5-min Rain = 0
KSC1 271254Z 16014KT 22/19 A2991 RMK A01 T02150187  RH  084%=      5-min Rain = 0
KSC1 271255Z 15014KT 22/19 A2991 RMK A01 T02150187  RH  084%=      5-min Rain = 0
KSC1 271256Z 15017KT 22/19 A2991 RMK A01 T02150187  RH  084%=      5-min Rain = 0
KSC1 271257Z 15016KT 22/19 A2991 RMK A01 T02150186  RH  084%=      5-min Rain = 0
KSC1 271258Z 15016G22KT 22/19 A2992 RMK A01 T02150186  RH  084%=      5-min Rain = 0
KSC1 271259Z 15012G18KT 22/19 A2992 RMK A01 T02150187  RH  084%=      5-min Rain = 0
KSC1 271300Z 15015KT 22/19 A2992 RMK A01 T02150187  RH  084%=      5-min Rain = 0
KSC1 271301Z 15012G17KT 22/19 A2991 RMK A01 T02160187  RH  084%=      5-min Rain = 0
KSC1 271302Z 15013KT 22/19 A2991 RMK A01 T02160187  RH  084%=      5-min Rain = 0
KSC1 271303Z 15014KT 22/19 A2991 RMK A01 T02160187  RH  084%=      5-min Rain = 0
KSC1 271304Z 15015KT 22/19 A2992 RMK A01 T02150187  RH  084%=      5-min Rain = 0
KSC1 271305Z 15012KT 22/19 A2992 RMK A01 T02160187  RH  084%=      5-min Rain = 0
KSC1 271306Z 15010G15KT 22/19 A2992 RMK A01 T02160187  RH  084%=      5-min Rain = 0
KSC1 271307Z 15012KT 22/19 A2992 RMK A01 T02160188  RH  084%=      5-min Rain = 0
KSC1 271308Z 15013KT 22/19 A2991 RMK A01 T02160187  RH  084%=      5-min Rain = 0
KSC1 271309Z 15014KT 22/19 A2991 RMK A01 T02160186  RH  083%=      5-min Rain = 0
KSC1 271310Z 15016KT 22/19 A2991 RMK A01 T02160187  RH  083%=      5-min Rain = 0
KSC1 271311Z 16013G18KT 22/19 A2992 RMK A01 T02160187  RH  083%=      5-min Rain = 0
KSC1 271312Z 15016KT 22/19 A2992 RMK A01 T02160187  RH  083%=      5-min Rain = 0
KSC1 271313Z 15011KT 22/19 A2992 RMK A01 T02160186  RH  083%=      5-min Rain = 0
KSC1 271314Z 16013G18KT 22/19 A2992 RMK A01 T02170187  RH  083%=      5-min Rain = 0
KSC1 271315Z 16012G17KT 22/19 A2992 RMK A01 T02170187  RH  083%=      5-min Rain = 0
KSC1 271316Z 15013KT 22/19 A2992 RMK A01 T02170187  RH  083%=      5-min Rain = 0
KSC1 271317Z 15014G20KT 22/19 A2992 RMK A01 T02170187  RH  083%=      5-min Rain = 0
KSC1 271318Z 15012KT 22/19 A2992 RMK A01 T02170187  RH  083%=      5-min Rain = 0
KSC1 271319Z 15016KT 22/19 A2992 RMK A01 T02170187  RH  083%=      5-min Rain = 0
KSC1 271320Z 15013G18KT 22/19 A2992 RMK A01 T02170187  RH  083%=      5-min Rain = 0
KSC1 271321Z 15013G21KT 22/19 A2992 RMK A01 T02170187  RH  083%=      5-min Rain = 0
KSC1 271322Z 15015KT 22/19 A2992 RMK A01 T02170187  RH  083%=      5-min Rain = 0
KSC1 271323Z 15011KT 22/19 A2992 RMK A01 T02170187  RH  083%=      5-min Rain = 0
KSC1 271324Z 15010KT 22/19 A2992 RMK A01 T02170187  RH  083%=      5-min Rain = 0
KSC1 271325Z 16012G18KT 22/19 A2992 RMK A01 T02180188  RH  083%=      5-min Rain = 0
KSC1 271326Z 15013KT 22/19 A2992 RMK A01 T02180187  RH  083%=      5-min Rain = 0
KSC1 271327Z 16014G19KT 22/19 A2992 RMK A01 T02180187  RH  083%=      5-min Rain = 0
KSC1 271328Z 16012G17KT 22/19 A2992 RMK A01 T02180187  RH  083%=      5-min Rain = 0
KSC1 271329Z 16011KT 22/19 A2992 RMK A01 T02180188  RH  083%=      5-min Rain = 0
KSC1 271330Z 17014G19KT 22/19 A2992 RMK A01 T02180187  RH  083%=      5-min Rain = 0
KSC1 271331Z 16013KT 22/19 A2992 RMK A01 T02180187  RH  083%=      5-min Rain = 0
KSC1 271332Z 16013KT 22/19 A2992 RMK A01 T02180187  RH  083%=      5-min Rain = 0
KSC1 271333Z 16010KT 22/19 A2992 RMK A01 T02180187  RH  083%=      5-min Rain = 0
KSC1 271334Z 16012G18KT 22/19 A2992 RMK A01 T02180188  RH  083%=      5-min Rain = 0
KSC1 271335Z 16011G17KT 22/19 A2992 RMK A01 T02180187  RH  083%=      5-min Rain = 0
KSC1 271336Z 15012G18KT 22/19 A2992 RMK A01 T02180188  RH  083%=      5-min Rain = 0
KSC1 271337Z 15016G21KT 22/19 A2992 RMK A01 T02180187  RH  082%=      5-min Rain = 0
KSC1 271338Z 15014KT 22/19 A2992 RMK A01 T02190187  RH  082%=      5-min Rain = 0
KSC1 271339Z 16010KT 22/19 A2992 RMK A01 T02190188  RH  082%=      5-min Rain = 0
KSC1 271340Z 15009KT 22/19 A2992 RMK A01 T02190188  RH  083%=      5-min Rain = 0
KSC1 271341Z 15011KT 22/19 A2992 RMK A01 T02190188  RH  083%=      5-min Rain = 0
KSC1 271342Z 16012G17KT 22/19 A2992 RMK A01 T02190188  RH  083%=      5-min Rain = 0
KSC1 271343Z 16012KT 22/19 A2992 RMK A01 T02190188  RH  082%=      5-min Rain = 0
KSC1 271344Z 15013KT 22/19 A2992 RMK A01 T02190187  RH  082%=      5-min Rain = 0
KSC1 271345Z 15013KT 22/19 A2992 RMK A01 T02190187  RH  082%=      5-min Rain = 0
KSC1 271346Z 17011KT 22/19 A2993 RMK A01 T02190188  RH  082%=      5-min Rain = 0
KSC1 271347Z 16013KT 22/19 A2993 RMK A01 T02190188  RH  082%=      5-min Rain = 0
KSC1 271348Z 16009KT 22/19 A2993 RMK A01 T02190188  RH  082%=      5-min Rain = 0
KSC1 271349Z 16012G18KT 22/19 A2993 RMK A01 T02200189  RH  083%=      5-min Rain = 0
KSC1 271350Z 15011G17KT 22/19 A2993 RMK A01 T02200188  RH  082%=      5-min Rain = 0
KSC1 271351Z 16013KT 22/19 A2992 RMK A01 T02200188  RH  082%=      5-min Rain = 0
KSC1 271352Z 16011KT 22/19 A2992 RMK A01 T02200188  RH  082%=      5-min Rain = 0
KSC1 271353Z 17010KT 22/19 A2992 RMK A01 T02190188  RH  082%=      5-min Rain = 0
KSC1 271354Z 15009G15KT 22/19 A2992 RMK A01 T02190189  RH  083%=      5-min Rain = 0
KSC1 271355Z 16010KT 22/19 A2993 RMK A01 T02200189  RH  082%=      5-min Rain = 0
KSC1 271356Z 15012KT 22/19 A2992 RMK A01 T02200188  RH  082%=      5-min Rain = 0
KSC1 271357Z 16010G15KT 22/19 A2992 RMK A01 T02200188  RH  082%=      5-min Rain = 0
KSC1 271358Z 16011KT 22/19 A2992 RMK A01 T02210188  RH  082%=      5-min Rain = 0
KSC1 271359Z 16013KT 22/19 A2992 RMK A01 T02210188  RH  082%=      5-min Rain = 0
KSC1 271400Z 16014KT 22/19 A2992 RMK A01 T02210188  RH  081%=      5-min Rain = 0
KSC1 271401Z 16015KT 22/19 A2992 RMK A01 T02210187  RH  081%=      5-min Rain = 0
KSC1 271402Z 15013KT 22/19 A2992 RMK A01 T02210187  RH  081%=      5-min Rain = 0
KSC1 271403Z 15010KT 22/19 A2992 RMK A01 T02200188  RH  082%=      5-min Rain = 0
KSC1 271404Z 15010KT 22/19 A2992 RMK A01 T02210188  RH  082%=      5-min Rain = 0
KSC1 271405Z 16010G16KT 22/19 A2992 RMK A01 T02210188  RH  082%=      5-min Rain = 0
KSC1 271406Z 16010G16KT 22/19 A2992 RMK A01 T02210189  RH  082%=      5-min Rain = 0
KSC1 271407Z 16013KT 22/19 A2992 RMK A01 T02220188  RH  081%=      5-min Rain = 0
KSC1 271408Z 16013G19KT 22/19 A2992 RMK A01 T02220187  RH  081%=      5-min Rain = 0
KSC1 271409Z 15010KT 22/19 A2992 RMK A01 T02220188  RH  081%=      5-min Rain = 0
KSC1 271410Z 16013G19KT 22/19 A2992 RMK A01 T02220188  RH  081%=      5-min Rain = 0
KSC1 271411Z 16013KT 22/19 A2992 RMK A01 T02220188  RH  081%=      5-min Rain = 0
KSC1 271412Z 16011KT 22/19 A2992 RMK A01 T02230189  RH  081%=      5-min Rain = 0
KSC1 271413Z 16010KT 22/19 A2992 RMK A01 T02230188  RH  081%=      5-min Rain = 0
KSC1 271414Z 16010G17KT 22/19 A2992 RMK A01 T02240189  RH  080%=      5-min Rain = 0
KSC1 271415Z 17013KT 22/19 A2992 RMK A01 T02240188  RH  080%=      5-min Rain = 0
KSC1 271416Z 17014G19KT 22/19 A2992 RMK A01 T02240187  RH  080%=      5-min Rain = 0
KSC1 271417Z 16011KT 22/19 A2992 RMK A01 T02230187  RH  080%=      5-min Rain = 0
KSC1 271418Z 16011KT 22/19 A2992 RMK A01 T02230188  RH  080%=      5-min Rain = 0
KSC1 271419Z 15016KT 22/19 A2992 RMK A01 T02230187  RH  080%=      5-min Rain = 0
KSC1 271420Z 17012KT 22/19 A2992 RMK A01 T02230187  RH  080%=      5-min Rain = 0
KSC1 271421Z 16011KT 22/19 A2992 RMK A01 T02240188  RH  080%=      5-min Rain = 0
KSC1 271422Z 15013KT 23/19 A2992 RMK A01 T02250189  RH  080%=      5-min Rain = 0
KSC1 271423Z 16014KT 23/19 A2992 RMK A01 T02250187  RH  079%=      5-min Rain = 0
KSC1 271424Z 15009KT 23/19 A2992 RMK A01 T02250187  RH  079%=      5-min Rain = 0
KSC1 271425Z 16011G16KT 23/19 A2992 RMK A01 T02260188  RH  079%=      5-min Rain = 0
KSC1 271426Z 15012G17KT 23/19 A2992 RMK A01 T02260188  RH  079%=      5-min Rain = 0
KSC1 271427Z 16009KT 23/19 A2992 RMK A01 T02260188  RH  079%=      5-min Rain = 0
KSC1 271428Z 15013KT 23/19 A2992 RMK A01 T02260188  RH  079%=      5-min Rain = 0
KSC1 271429Z 16011G16KT 23/19 A2992 RMK A01 T02260187  RH  079%=      5-min Rain = 0
KSC1 271430Z 15010KT 23/19 A2992 RMK A01 T02270188  RH  079%=      5-min Rain = 0
KSC1 271431Z 15006KT 23/19 A2992 RMK A01 T02270188  RH  079%=      5-min Rain = 0
KSC1 271432Z 15008G13KT 23/19 A2992 RMK A01 T02270189  RH  079%=      5-min Rain = 0
KSC1 271433Z 15007KT 23/19 A2992 RMK A01 T02280190  RH  079%=      5-min Rain = 0
KSC1 271434Z 15008KT 23/19 A2992 RMK A01 T02290190  RH  078%=      5-min Rain = 0
KSC1 271435Z 15010KT 23/19 A2992 RMK A01 T02300189  RH  077%=      5-min Rain = 0
KSC1 271436Z 17013G18KT 23/19 A2992 RMK A01 T02300189  RH  077%=      5-min Rain = 0
KSC1 271437Z 16015KT 23/19 A2993 RMK A01 T02300187  RH  077%=      5-min Rain = 0
KSC1 271438Z 15013KT 23/19 A2992 RMK A01 T02290187  RH  077%=      5-min Rain = 0
KSC1 271439Z 15012KT 23/19 A2992 RMK A01 T02290187  RH  077%=      5-min Rain = 0
KSC1 271440Z 15013KT 23/19 A2993 RMK A01 T02290186  RH  077%=      5-min Rain = 0
KSC1 271441Z 15012KT 23/19 A2993 RMK A01 T02290186  RH  077%=      5-min Rain = 0
KSC1 271442Z 15009KT 23/19 A2993 RMK A01 T02290187  RH  077%=      5-min Rain = 0
KSC1 271443Z 17009KT 23/19 A2993 RMK A01 T02290187  RH  077%=      5-min Rain = 0
KSC1 271444Z 17011KT 23/19 A2993 RMK A01 T02290187  RH  077%=      5-min Rain = 0
KSC1 271445Z 16009G14KT 23/19 A2993 RMK A01 T02300187  RH  076%=      5-min Rain = 0
KSC1 271446Z 15009G18KT 23/19 A2993 RMK A01 T02310189  RH  077%=      5-min Rain = 0
KSC1 271447Z 14013KT 23/19 A2993 RMK A01 T02320187  RH  076%=      5-min Rain = 0
KSC1 271448Z 15009KT 23/19 A2992 RMK A01 T02320187  RH  076%=      5-min Rain = 0
KSC1 271449Z 14011KT 23/19 A2993 RMK A01 T02330187  RH  076%=      5-min Rain = 0
KSC1 271450Z 15011KT 23/19 A2993 RMK A01 T02330187  RH  075%=      5-min Rain = 0
KSC1 271451Z 15010KT 23/19 A2993 RMK A01 T02330187  RH  075%=      5-min Rain = 0
KSC1 271452Z 15011KT 23/19 A2993 RMK A01 T02330187  RH  075%=      5-min Rain = 0
KSC1 271453Z 14010KT 23/19 A2993 RMK A01 T02340188  RH  075%=      5-min Rain = 0
KSC1 271454Z 14009KT 23/19 A2993 RMK A01 T02340188  RH  075%=      5-min Rain = 0
KSC1 271455Z 14010KT 24/19 A2993 RMK A01 T02350188  RH  075%=      5-min Rain = 0
KSC1 271456Z 14010KT 24/19 A2993 RMK A01 T02370189  RH  074%=      5-min Rain = 0
KSC1 271457Z 16010KT 24/19 A2993 RMK A01 T02390189  RH  074%=      5-min Rain = 0
KSC1 271458Z 15012G18KT 24/19 A2993 RMK A01 T02400188  RH  073%=      5-min Rain = 0
KSC1 271459Z 16007KT 24/19 A2993 RMK A01 T02400188  RH  073%=      5-min Rain = 0
KSC1 271500Z 15009KT 24/19 A2992 RMK A01 T02390189  RH  073%=      5-min Rain = 0
KSC1 271501Z 12009G14KT 24/19 A2993 RMK A01 T02390188  RH  073%=      5-min Rain = 0
KSC1 271502Z 13009KT 24/19 A2993 RMK A01 T02380187  RH  073%=      5-min Rain = 0
KSC1 271503Z 14008KT 24/19 A2993 RMK A01 T02380188  RH  074%=      5-min Rain = 0
KSC1 271504Z 14010KT 24/19 A2993 RMK A01 T02370188  RH  074%=      5-min Rain = 0
KSC1 271505Z 14011KT 24/19 A2993 RMK A01 T02380187  RH  073%=      5-min Rain = 0
KSC1 271506Z 13008KT 24/19 A2993 RMK A01 T02370186  RH  073%=      5-min Rain = 0
KSC1 271507Z 14008KT 24/19 A2993 RMK A01 T02360188  RH  074%=      5-min Rain = 0
KSC1 271508Z 13009G14KT 24/19 A2993 RMK A01 T02370188  RH  074%=      5-min Rain = 0
KSC1 271509Z 13009G14KT 24/19 A2993 RMK A01 T02370186  RH  073%=      5-min Rain = 0
KSC1 271510Z 14008KT 24/19 A2993 RMK A01 T02370187  RH  074%=      5-min Rain = 0
KSC1 271511Z 16010KT 24/19 A2993 RMK A01 T02370189  RH  074%=      5-min Rain = 0
KSC1 271512Z 16011KT 24/19 A2993 RMK A01 T02370186  RH  073%=      5-min Rain = 0
KSC1 271513Z 15010KT 24/19 A2993 RMK A01 T02370186  RH  073%=      5-min Rain = 0
KSC1 271514Z 15012KT 24/19 A2993 RMK A01 T02370186  RH  073%=      5-min Rain = 0
KSC1 271515Z 17010KT 24/19 A2993 RMK A01 T02370186  RH  073%=      5-min Rain = 0
KSC1 271516Z 16010KT 24/19 A2992 RMK A01 T02380187  RH  073%=      5-min Rain = 0
KSC1 271517Z 15011KT 24/19 A2993 RMK A01 T02390187  RH  073%=      5-min Rain = 0
KSC1 271518Z 15011KT 24/19 A2992 RMK A01 T02410187  RH  072%=      5-min Rain = 0
KSC1 271519Z 15008KT 24/19 A2992 RMK A01 T02430189  RH  072%=      5-min Rain = 0
KSC1 271520Z 15010KT 25/19 A2992 RMK A01 T02470189  RH  070%=      5-min Rain = 0
KSC1 271521Z 16010KT 25/19 A2992 RMK A01 T02480189  RH  070%=      5-min Rain = 0
KSC1 271522Z 14009KT 25/19 A2992 RMK A01 T02480189  RH  070%=      5-min Rain = 0
KSC1 271523Z 15012KT 25/19 A2992 RMK A01 T02470189  RH  070%=      5-min Rain = 0
KSC1 271524Z 15015KT 25/19 A2992 RMK A01 T02460186  RH  069%=      5-min Rain = 0
KSC1 271525Z 15012KT 25/19 A2992 RMK A01 T02450185  RH  069%=      5-min Rain = 0
KSC1 271531Z 17011KT 25/19 A2992 RMK A01 T02470188  RH  070%=      5-min Rain = 0
KSC1 271532Z 16012KT 25/19 A2992 RMK A01 T02480186  RH  069%=      5-min Rain = 0
KSC1 271533Z 17009KT 25/19 A2992 RMK A01 T02480187  RH  069%=      5-min Rain = 0
KSC1 271534Z 16012KT 25/19 A2992 RMK A01 T02480188  RH  069%=      5-min Rain = 0
KSC1 271535Z 16013KT 25/19 A2992 RMK A01 T02490187  RH  068%=      5-min Rain = 0
KSC1 271536Z 16009G14KT 25/19 A2992 RMK A01 T02500187  RH  068%=      5-min Rain = 0
KSC1 271537Z 15012KT 25/19 A2992 RMK A01 T02510189  RH  069%=      5-min Rain = 0
KSC1 271538Z 14013KT 25/19 A2992 RMK A01 T02520186  RH  067%=      5-min Rain = 0
KSC1 271539Z 15011G16KT 25/19 A2992 RMK A01 T02520186  RH  067%=      5-min Rain = 0
KSC1 271540Z 15014KT 25/19 A2992 RMK A01 T02520186  RH  067%=      5-min Rain = 0
KSC1 271541Z 14011KT 25/19 A2992 RMK A01 T02520186  RH  067%=      5-min Rain = 0
KSC1 271542Z 15009KT 25/19 A2992 RMK A01 T02530188  RH  067%=      5-min Rain = 0
KSC1 271543Z 14009KT 26/19 A2992 RMK A01 T02550189  RH  067%=      5-min Rain = 0
KSC1 271544Z 15011KT 26/19 A2992 RMK A01 T02560187  RH  066%=      5-min Rain = 0
KSC1 271545Z 16013KT 26/19 A2992 RMK A01 T02550187  RH  066%=      5-min Rain = 0
KSC1 271546Z 16010KT 26/19 A2992 RMK A01 T02550187  RH  066%=      5-min Rain = 0
KSC1 271547Z 15013G18KT 26/19 A2992 RMK A01 T02550187  RH  066%=      5-min Rain = 0
KSC1 271548Z 16013KT 26/19 A2992 RMK A01 T02550186  RH  066%=      5-min Rain = 0
KSC1 271549Z 16013KT 26/19 A2992 RMK A01 T02550187  RH  066%=      5-min Rain = 0
KSC1 271550Z 15011KT 26/19 A2992 RMK A01 T02560187  RH  066%=      5-min Rain = 0
KSC1 271551Z 15011KT 26/19 A2992 RMK A01 T02570187  RH  065%=      5-min Rain = 0
KSC1 271552Z 15013KT 26/19 A2992 RMK A01 T02570187  RH  065%=      5-min Rain = 0
KSC1 271553Z 14010KT 26/19 A2992 RMK A01 T02570186  RH  065%=      5-min Rain = 0
KSC1 271554Z 15011KT 26/19 A2992 RMK A01 T02570187  RH  065%=      5-min Rain = 0
KSC1 271555Z 16011KT 26/19 A2992 RMK A01 T02570186  RH  065%=      5-min Rain = 0
KSC1 271556Z 18011KT 26/19 A2992 RMK A01 T02570188  RH  065%=      5-min Rain = 0
KSC1 271557Z 18010KT 26/19 A2991 RMK A01 T02570186  RH  065%=      5-min Rain = 0
KSC1 271558Z 17010KT 26/19 A2991 RMK A01 T02570187  RH  065%=      5-min Rain = 0
KSC1 271559Z 14008KT 26/19 A2991 RMK A01 T02570187  RH  066%=      5-min Rain = 0
KSC1 271600Z 15010KT 26/19 A2991 RMK A01 T02580188  RH  065%=      5-min Rain = 0
KSC1 271601Z 16009KT 26/19 A2991 RMK A01 T02600191  RH  066%=      5-min Rain = 0
KSC1 271602Z 18012KT 26/19 A2991 RMK A01 T02620193  RH  065%=      5-min Rain = 0
KSC1 271603Z 18013G20KT 26/19 A2991 RMK A01 T02630189  RH  064%=      5-min Rain = 0
KSC1 271604Z 19015KT 26/19 A2991 RMK A01 T02610187  RH  064%=      5-min Rain = 0
KSC1 271605Z 17013G18KT 26/19 A2991 RMK A01 T02600187  RH  064%=      5-min Rain = 0
KSC1 271606Z 17016KT 26/19 A2991 RMK A01 T02590186  RH  064%=      5-min Rain = 0
KSC1 271607Z 17014G19KT 26/19 A2991 RMK A01 T02590186  RH  064%=      5-min Rain = 0
KSC1 271608Z 17013G18KT 26/19 A2991 RMK A01 T02570186  RH  064%=      5-min Rain = 0
KSC1 271609Z 17011KT 26/19 A2991 RMK A01 T02570187  RH  065%=      5-min Rain = 0
KSC1 271610Z 19010KT 26/19 A2991 RMK A01 T02590189  RH  065%=      5-min Rain = 0
KSC1 271611Z 17013KT 26/19 A2991 RMK A01 T02610190  RH  065%=      5-min Rain = 0
KSC1 271612Z 17012KT 26/19 A2991 RMK A01 T02620190  RH  064%=      5-min Rain = 0
KSC1 271613Z 17013KT 26/19 A2991 RMK A01 T02630189  RH  064%=      5-min Rain = 0
KSC1 271614Z 18014KT 26/19 A2991 RMK A01 T02640189  RH  064%=      5-min Rain = 0
KSC1 271615Z 18012KT 26/19 A2991 RMK A01 T02630188  RH  063%=      5-min Rain = 0
KSC1 271616Z 17012KT 26/19 A2991 RMK A01 T02630190  RH  064%=      5-min Rain = 0
KSC1 271617Z 19012KT 26/19 A2991 RMK A01 T02630188  RH  063%=      5-min Rain = 0
KSC1 271618Z 18013KT 26/19 A2991 RMK A01 T02620188  RH  064%=      5-min Rain = 0
KSC1 271619Z 17009KT 26/19 A2991 RMK A01 T02620189  RH  064%=      5-min Rain = 0
KSC1 271620Z 17008KT 26/19 A2991 RMK A01 T02630188  RH  064%=      5-min Rain = 0
KSC1 271621Z 16013G18KT 26/19 A2991 RMK A01 T02630189  RH  064%=      5-min Rain = 0
KSC1 271622Z 15015KT 26/19 A2991 RMK A01 T02630187  RH  063%=      5-min Rain = 0
KSC1 271623Z 16011KT 26/19 A2991 RMK A01 T02620189  RH  064%=      5-min Rain = 0
KSC1 271624Z 18010KT 26/19 A2991 RMK A01 T02630191  RH  065%=      5-min Rain = 0
KSC1 271625Z 16011KT 26/19 A2991 RMK A01 T02640191  RH  064%=      5-min Rain = 0
KSC1 271626Z 16012KT 26/19 A2991 RMK A01 T02640188  RH  063%=      5-min Rain = 0
KSC1 271627Z 16010KT 26/19 A2991 RMK A01 T02620187  RH  063%=      5-min Rain = 0
KSC1 271628Z 17007KT 26/19 A2991 RMK A01 T02620191  RH  065%=      5-min Rain = 0
KSC1 271629Z 17007KT 26/19 A2991 RMK A01 T02640193  RH  065%=      5-min Rain = 0
KSC1 271630Z 16009KT 27/20 A2991 RMK A01 T02680195  RH  064%=      5-min Rain = 0
KSC1 271631Z 16011KT 27/19 A2991 RMK A01 T02710193  RH  063%=      5-min Rain = 0
KSC1 271632Z 16009KT 27/19 A2991 RMK A01 T02700191  RH  062%=      5-min Rain = 0
KSC1 271633Z 16011KT 27/19 A2991 RMK A01 T02700192  RH  063%=      5-min Rain = 0
KSC1 271634Z 18012KT 27/19 A299 RMK A01 T02700190  RH  062%=      5-min Rain = 0
KSC1 271635Z 18013KT 27/19 A2991 RMK A01 T02690190  RH  062%=      5-min Rain = 0
KSC1 271636Z 17011KT 27/19 A2991 RMK A01 T02660188  RH  062%=      5-min Rain = 0
KSC1 271637Z 15010KT 27/19 A2991 RMK A01 T02650191  RH  064%=      5-min Rain = 0
KSC1 271638Z 14012KT 27/19 A2991 RMK A01 T02660191  RH  063%=      5-min Rain = 0
KSC1 271639Z 16012G17KT 27/19 A2991 RMK A01 T02680191  RH  063%=      5-min Rain = 0
KSC1 271640Z 18009KT 27/19 A2991 RMK A01 T02680192  RH  063%=      5-min Rain = 0
KSC1 271641Z 16009KT 27/19 A2991 RMK A01 T02690194  RH  064%=      5-min Rain = 0
KSC1 271642Z 16011KT 27/19 A2991 RMK A01 T02710193  RH  063%=      5-min Rain = 0
KSC1 271643Z 14013KT 27/19 A2991 RMK A01 T02710192  RH  062%=      5-min Rain = 0
KSC1 271644Z 14009KT 27/19 A299 RMK A01 T02710192  RH  062%=      5-min Rain = 0
KSC1 271645Z 15007KT 27/20 A299 RMK A01 T02700196  RH  064%=      5-min Rain = 0
KSC1 271646Z 14011KT 27/20 A299 RMK A01 T02740198  RH  063%=      5-min Rain = 0
KSC1 271647Z 15011KT 28/20 A299 RMK A01 T02750195  RH  061%=      5-min Rain = 0
KSC1 271648Z 15010KT 28/20 A299 RMK A01 T02750195  RH  062%=      5-min Rain = 0
KSC1 271649Z 15010G15KT 27/19 A299 RMK A01 T02740194  RH  062%=      5-min Rain = 0
KSC1 271650Z 15012KT 27/19 A299 RMK A01 T02740193  RH  062%=      5-min Rain = 0
KSC1 271651Z 17010KT 27/19 A299 RMK A01 T02730193  RH  062%=      5-min Rain = 0
KSC1 271652Z 16009KT 27/19 A299 RMK A01 T02720193  RH  062%=      5-min Rain = 0
KSC1 271653Z 16011KT 27/19 A299 RMK A01 T02720194  RH  062%=      5-min Rain = 0
KSC1 271654Z 17011KT 27/19 A299 RMK A01 T02720194  RH  062%=      5-min Rain = 0
KSC1 271655Z 16011KT 27/19 A299 RMK A01 T02720193  RH  062%=      5-min Rain = 0
KSC1 271656Z 15010KT 27/19 A299 RMK A01 T02710191  RH  062%=      5-min Rain = 0
KSC1 271657Z 17010KT 27/19 A299 RMK A01 T02700194  RH  063%=      5-min Rain = 0
KSC1 271658Z 18008KT 27/20 A299 RMK A01 T02720196  RH  063%=      5-min Rain = 0
KSC1 271659Z 18010KT 27/20 A299 RMK A01 T02730196  RH  063%=      5-min Rain = 0
KSC1 271700Z 18012KT 27/20 A299 RMK A01 T02740195  RH  062%=      5-min Rain = 0
KSC1 271701Z 17012KT 27/19 A299 RMK A01 T02730194  RH  062%=      5-min Rain = 0
KSC1 271702Z 17010KT 27/20 A299 RMK A01 T02730197  RH  063%=      5-min Rain = 0
KSC1 271703Z 18008KT 27/20 A299 RMK A01 T02740196  RH  062%=      5-min Rain = 0
KSC1 271704Z 16011KT 27/20 A299 RMK A01 T02740196  RH  062%=      5-min Rain = 0
KSC1 271705Z 15009KT 27/20 A299 RMK A01 T02740196  RH  062%=      5-min Rain = 0
KSC1 271706Z 15012KT 27/20 A299 RMK A01 T02740195  RH  062%=      5-min Rain = 0
KSC1 271707Z 16012KT 28/20 A299 RMK A01 T02750195  RH  062%=      5-min Rain = 0
KSC1 271708Z 17011KT 28/20 A299 RMK A01 T02750195  RH  062%=      5-min Rain = 0
KSC1 271709Z 17007KT 28/20 A299 RMK A01 T02750199  RH  063%=      5-min Rain = 0
KSC1 271710Z 16007KT 28/20 A299 RMK A01 T02770200  RH  063%=      5-min Rain = 0
KSC1 271711Z 16011KT 28/20 A299 RMK A01 T02790197  RH  061%=      5-min Rain = 0
KSC1 271712Z 16012KT 28/20 A299 RMK A01 T02780195  RH  061%=      5-min Rain = 0
KSC1 271713Z 17011KT 28/20 A299 RMK A01 T02770195  RH  061%=      5-min Rain = 0
KSC1 271714Z 17010KT 28/20 A299 RMK A01 T02770195  RH  061%=      5-min Rain = 0
KSC1 271715Z 16013KT 28/20 A299 RMK A01 T02760196  RH  062%=      5-min Rain = 0
KSC1 271716Z 15013KT 28/20 A299 RMK A01 T02760195  RH  061%=      5-min Rain = 0
KSC1 271717Z 16009KT 28/20 A299 RMK A01 T02750195  RH  061%=      5-min Rain = 0
KSC1 271718Z 16011KT 28/20 A299 RMK A01 T02750197  RH  062%=      5-min Rain = 0
KSC1 271719Z 18011KT 28/20 A299 RMK A01 T02760197  RH  062%=      5-min Rain = 0
KSC1 271720Z 18010G15KT 28/20 A299 RMK A01 T02770198  RH  062%=      5-min Rain = 0
KSC1 271721Z 18011KT 28/20 A2989 RMK A01 T02780197  RH  061%=      5-min Rain = 0
KSC1 271722Z 19010KT 28/20 A2989 RMK A01 T02780196  RH  061%=      5-min Rain = 0
KSC1 271723Z 18010G17KT 28/20 A2989 RMK A01 T02770198  RH  062%=      5-min Rain = 0
KSC1 271724Z 16011G17KT 28/20 A2989 RMK A01 T02780199  RH  062%=      5-min Rain = 0
KSC1 271725Z 16009KT 28/20 A2989 RMK A01 T02790196  RH  060%=      5-min Rain = 0
KSC1 271726Z 15011KT 28/20 A2989 RMK A01 T02790198  RH  061%=      5-min Rain = 0
KSC1 271727Z 16012KT 28/20 A2989 RMK A01 T02790198  RH  061%=      5-min Rain = 0
KSC1 271728Z 15012KT 28/20 A2989 RMK A01 T02790195  RH  060%=      5-min Rain = 0
KSC1 271729Z 15008KT 28/20 A2989 RMK A01 T02780197  RH  061%=      5-min Rain = 0
KSC1 271730Z 15009KT 28/20 A2989 RMK A01 T02790201  RH  063%=      5-min Rain = 0
KSC1 271731Z 17011KT 28/20 A2989 RMK A01 T02810198  RH  061%=      5-min Rain = 0
KSC1 271732Z 18009KT 28/20 A2989 RMK A01 T02810197  RH  060%=      5-min Rain = 0
KSC1 271733Z 17006KT 28/20 A2989 RMK A01 T02800199  RH  061%=      5-min Rain = 0
KSC1 271734Z 16006KT 28/20 A2989 RMK A01 T02800201  RH  062%=      5-min Rain = 0
KSC1 271735Z 17008G15KT 28/20 A2989 RMK A01 T02820203  RH  062%=      5-min Rain = 0
KSC1 271736Z 17010KT 28/20 A2989 RMK A01 T02840201  RH  061%=      5-min Rain = 0
KSC1 271737Z 17009KT 29/20 A2989 RMK A01 T02850201  RH  061%=      5-min Rain = 0
KSC1 271738Z 18011KT 28/20 A2989 RMK A01 T02840200  RH  060%=      5-min Rain = 0
KSC1 271739Z 15011KT 28/20 A2989 RMK A01 T02830198  RH  060%=      5-min Rain = 0
KSC1 271740Z 14011KT 28/20 A2989 RMK A01 T02820200  RH  061%=      5-min Rain = 0
KSC1 271741Z 16010KT 28/20 A2989 RMK A01 T02830199  RH  060%=      5-min Rain = 0
KSC1 271742Z 19009KT 28/20 A2989 RMK A01 T02840200  RH  060%=      5-min Rain = 0
KSC1 271743Z 17009KT 28/20 A2989 RMK A01 T02840199  RH  060%=      5-min Rain = 0
KSC1 271744Z 17008KT 28/20 A2989 RMK A01 T02830200  RH  061%=      5-min Rain = 0
KSC1 271745Z 15011KT 28/20 A2989 RMK A01 T02840199  RH  060%=      5-min Rain = 0
KSC1 271746Z 16010KT 29/20 A2989 RMK A01 T02850198  RH  059%=      5-min Rain = 0
KSC1 271747Z 16009KT 29/20 A2989 RMK A01 T02850198  RH  059%=      5-min Rain = 0
KSC1 271748Z 17005KT 28/20 A2989 RMK A01 T02830199  RH  060%=      5-min Rain = 0
KSC1 271749Z 13008G16KT 28/20 A2989 RMK A01 T02840200  RH  060%=      5-min Rain = 0
KSC1 271750Z 16012KT 28/20 A2989 RMK A01 T02840199  RH  060%=      5-min Rain = 0
KSC1 271751Z 17007G12KT 29/20 A2989 RMK A01 T02850202  RH  061%=      5-min Rain = 0
KSC1 271752Z 15011G16KT 29/21 A2989 RMK A01 T02880205  RH  061%=      5-min Rain = 0
KSC1 271753Z 14010KT 29/20 A2989 RMK A01 T02900202  RH  059%=      5-min Rain = 0
KSC1 271754Z 13009KT 29/20 A2989 RMK A01 T02910202  RH  059%=      5-min Rain = 0
KSC1 271755Z 15007KT 29/20 A2989 RMK A01 T02900201  RH  059%=      5-min Rain = 0
KSC1 271756Z 17008KT 29/20 A2989 RMK A01 T02900202  RH  059%=      5-min Rain = 0
KSC1 271757Z 17011KT 29/20 A2989 RMK A01 T02900200  RH  059%=      5-min Rain = 0
KSC1 271758Z 16011KT 29/20 A2988 RMK A01 T02890200  RH  059%=      5-min Rain = 0
KSC1 271759Z 16014KT 29/20 A2988 RMK A01 T02880198  RH  058%=      5-min Rain = 0
KSC1 271800Z 16011KT 29/20 A2988 RMK A01 T02870197  RH  058%=      5-min Rain = 0
KSC1 271801Z 16008KT 29/20 A2988 RMK A01 T02860198  RH  059%=      5-min Rain = 0
KSC1 271802Z 16010KT 29/20 A2988 RMK A01 T02850200  RH  060%=      5-min Rain = 0
KSC1 271803Z 17010KT 29/20 A2988 RMK A01 T02860202  RH  060%=      5-min Rain = 0
KSC1 271804Z 13010KT 29/20 A2988 RMK A01 T02880201  RH  060%=      5-min Rain = 0
KSC1 271805Z 14008KT 29/20 A2988 RMK A01 T02880203  RH  060%=      5-min Rain = 0
KSC1 271806Z 18009KT 29/20 A2988 RMK A01 T02890203  RH  060%=      5-min Rain = 0
KSC1 271807Z 17010KT 29/20 A2988 RMK A01 T02900201  RH  059%=      5-min Rain = 0
KSC1 271808Z 19006KT 29/20 A2988 RMK A01 T02890204  RH  060%=      5-min Rain = 0
KSC1 271809Z 18009KT 29/20 A2988 RMK A01 T02910204  RH  059%=      5-min Rain = 0
KSC1 271810Z 17007KT 29/21 A2988 RMK A01 T02930208  RH  060%=      5-min Rain = 0
KSC1 271811Z 17011KT 30/21 A2988 RMK A01 T02950205  RH  058%=      5-min Rain = 0
KSC1 271812Z 16012KT 29/20 A2988 RMK A01 T02940203  RH  058%=      5-min Rain = 0
KSC1 271813Z 17010KT 29/20 A2988 RMK A01 T02930200  RH  057%=      5-min Rain = 0
KSC1 271814Z 16010KT 29/20 A2988 RMK A01 T02910202  RH  059%=      5-min Rain = 0
KSC1 271815Z 17010KT 29/20 A2988 RMK A01 T02920200  RH  058%=      5-min Rain = 0
KSC1 271816Z 17008KT 29/20 A2988 RMK A01 T02900199  RH  058%=      5-min Rain = 0
KSC1 271817Z 18007KT 29/21 A2988 RMK A01 T02900205  RH  060%=      5-min Rain = 0
KSC1 271818Z 18010G15KT 29/20 A2988 RMK A01 T02930204  RH  059%=      5-min Rain = 0
KSC1 271819Z 17011KT 29/20 A2988 RMK A01 T02930200  RH  057%=      5-min Rain = 0
KSC1 271820Z 15012KT 29/20 A2988 RMK A01 T02900199  RH  058%=      5-min Rain = 0
KSC1 271821Z 14010G15KT 29/20 A2988 RMK A01 T02880199  RH  059%=      5-min Rain = 0
KSC1 271822Z 15008KT 29/20 A2988 RMK A01 T02880199  RH  059%=      5-min Rain = 0
KSC1 271823Z 15010KT 29/20 A2988 RMK A01 T02880200  RH  059%=      5-min Rain = 0
KSC1 271824Z 15008KT 29/20 A2988 RMK A01 T02900204  RH  060%=      5-min Rain = 0
KSC1 271825Z 15010KT 29/20 A2988 RMK A01 T02930203  RH  058%=      5-min Rain = 0
KSC1 271826Z 15013KT 29/20 A2988 RMK A01 T02930201  RH  057%=      5-min Rain = 0
KSC1 271827Z 18011KT 29/20 A2988 RMK A01 T02920200  RH  057%=      5-min Rain = 0
KSC1 271828Z 18009KT 29/20 A2988 RMK A01 T02900198  RH  058%=      5-min Rain = 0
KSC1 271829Z 16014G19KT 29/20 A2988 RMK A01 T02890201  RH  059%=      5-min Rain = 0
KSC1 271830Z 17014KT 29/20 A2988 RMK A01 T02890200  RH  059%=      5-min Rain = 0
KSC1 271831Z 16011KT 29/20 A2988 RMK A01 T02880199  RH  058%=      5-min Rain = 0
KSC1 271832Z 15010KT 29/20 A2988 RMK A01 T02870201  RH  060%=      5-min Rain = 0
KSC1 271833Z 17012KT 29/20 A2988 RMK A01 T02890202  RH  059%=      5-min Rain = 0
KSC1 271834Z 18010KT 29/20 A2988 RMK A01 T02890199  RH  058%=      5-min Rain = 0
KSC1 271835Z 17008KT 29/20 A2988 RMK A01 T02860197  RH  058%=      5-min Rain = 0
KSC1 271836Z 15006KT 28/20 A2988 RMK A01 T02840200  RH  060%=      5-min Rain = 0
KSC1 271837Z 16009KT 29/20 A2988 RMK A01 T02850201  RH  060%=      5-min Rain = 0
KSC1 271838Z 15008KT 29/20 A2988 RMK A01 T02860203  RH  061%=      5-min Rain = 0
KSC1 271839Z 16009KT 29/20 A2988 RMK A01 T02880204  RH  060%=      5-min Rain = 0
KSC1 271840Z 15009G15KT 29/20 A2988 RMK A01 T02900204  RH  060%=      5-min Rain = 0
KSC1 271841Z 17010KT 29/20 A2988 RMK A01 T02920204  RH  059%=      5-min Rain = 0
KSC1 271842Z 17012KT 29/20 A2988 RMK A01 T02930203  RH  058%=      5-min Rain = 0
KSC1 271843Z 16008KT 29/20 A2987 RMK A01 T02920200  RH  058%=      5-min Rain = 0
KSC1 271844Z 15008KT 29/20 A2987 RMK A01 T02900200  RH  059%=      5-min Rain = 0
KSC1 271845Z 15009KT 29/20 A2987 RMK A01 T02890201  RH  059%=      5-min Rain = 0
KSC1 271846Z 15010KT 29/20 A2987 RMK A01 T02890201  RH  059%=      5-min Rain = 0
KSC1 271847Z 16010KT 29/20 A2987 RMK A01 T02890199  RH  058%=      5-min Rain = 0
KSC1 271848Z 15011KT 29/20 A2987 RMK A01 T02900199  RH  058%=      5-min Rain = 0
KSC1 271849Z 16007KT 29/20 A2987 RMK A01 T02910202  RH  059%=      5-min Rain = 0
KSC1 271850Z 16010G15KT 29/21 A2987 RMK A01 T02940205  RH  058%=      5-min Rain = 0
KSC1 271851Z 17010KT 30/20 A2987 RMK A01 T02960200  RH  056%=      5-min Rain = 0
KSC1 271852Z 17009KT 30/20 A2987 RMK A01 T02950202  RH  058%=      5-min Rain = 0
KSC1 271853Z 17008KT 30/20 A2987 RMK A01 T02950202  RH  057%=      5-min Rain = 0
KSC1 271854Z 17009KT 30/20 A2987 RMK A01 T02980203  RH  057%=      5-min Rain = 0
KSC1 271855Z 17011KT 30/20 A2987 RMK A01 T02990200  RH  056%=      5-min Rain = 0
KSC1 271856Z 17009KT 30/20 A2987 RMK A01 T02970201  RH  056%=      5-min Rain = 0
KSC1 271857Z 16009KT 30/20 A2987 RMK A01 T02970204  RH  057%=      5-min Rain = 0
KSC1 271858Z 17007KT 30/21 A2986 RMK A01 T02990205  RH  057%=      5-min Rain = 0
KSC1 271859Z 20009KT 30/21 A2986 RMK A01 T03000206  RH  057%=      5-min Rain = 0
KSC1 271900Z 16010KT 30/21 A2986 RMK A01 T03010205  RH  057%=      5-min Rain = 0
KSC1 271901Z 15009KT 30/21 A2986 RMK A01 T03010206  RH  057%=      5-min Rain = 0
KSC1 271902Z 16008KT 30/21 A2986 RMK A01 T03010208  RH  057%=      5-min Rain = 0
KSC1 271903Z 17013KT 30/21 A2986 RMK A01 T03040205  RH  056%=      5-min Rain = 0
KSC1 271904Z 16010KT 30/20 A2986 RMK A01 T03010201  RH  055%=      5-min Rain = 0
KSC1 271905Z 16012KT 30/20 A2986 RMK A01 T02980203  RH  057%=      5-min Rain = 0
KSC1 271906Z 17012KT 30/20 A2986 RMK A01 T02990202  RH  056%=      5-min Rain = 0
KSC1 271907Z 18010KT 30/20 A2986 RMK A01 T02990202  RH  056%=      5-min Rain = 0
KSC1 271908Z 16007KT 30/20 A2986 RMK A01 T02990202  RH  056%=      5-min Rain = 0
KSC1 271909Z 18006KT 30/20 A2986 RMK A01 T02990204  RH  057%=      5-min Rain = 0
KSC1 271910Z 16006KT 30/21 A2986 RMK A01 T03000206  RH  057%=      5-min Rain = 0
KSC1 271911Z 14009G15KT 30/21 A2985 RMK A01 T03030211  RH  058%=      5-min Rain = 0
KSC1 271912Z 15014G19KT 31/21 A2985 RMK A01 T03050205  RH  055%=      5-min Rain = 0
KSC1 271913Z 16009KT 30/21 A2985 RMK A01 T03040207  RH  056%=      5-min Rain = 0
KSC1 271914Z 15010KT 31/21 A2985 RMK A01 T03050212  RH  057%=      5-min Rain = 0
KSC1 271915Z 15012KT 31/21 A2985 RMK A01 T03080208  RH  055%=      5-min Rain = 0
KSC1 271916Z 15010KT 31/20 A2985 RMK A01 T03070203  RH  054%=      5-min Rain = 0
KSC1 271917Z 15010KT 30/20 A2985 RMK A01 T03040204  RH  055%=      5-min Rain = 0
KSC1 271918Z 15009KT 30/21 A2985 RMK A01 T03020205  RH  056%=      5-min Rain = 0
KSC1 271919Z 14011KT 30/21 A2985 RMK A01 T03020206  RH  056%=      5-min Rain = 0
KSC1 271920Z 14008KT 30/21 A2985 RMK A01 T03020206  RH  056%=      5-min Rain = 0
KSC1 271921Z 14009KT 30/21 A2985 RMK A01 T03010207  RH  057%=      5-min Rain = 0
KSC1 271922Z 13010KT 30/21 A2985 RMK A01 T03020208  RH  057%=      5-min Rain = 0
KSC1 271923Z 14009G14KT 30/21 A2985 RMK A01 T03030207  RH  056%=      5-min Rain = 0
KSC1 271924Z 14010KT 30/21 A2985 RMK A01 T03030206  RH  056%=      5-min Rain = 0
KSC1 271925Z 15008KT 30/21 A2985 RMK A01 T03040209  RH  057%=      5-min Rain = 0
KSC1 271926Z 16007G12KT 31/21 A2985 RMK A01 T03060212  RH  057%=      5-min Rain = 0
KSC1 271927Z 14012KT 31/21 A2985 RMK A01 T03080208  RH  055%=      5-min Rain = 0
KSC1 271928Z 15010KT 31/21 A2985 RMK A01 T03080206  RH  054%=      5-min Rain = 0
KSC1 271929Z 15011KT 31/21 A2985 RMK A01 T03070206  RH  055%=      5-min Rain = 0
KSC1 271930Z 16008KT 31/21 A2985 RMK A01 T03060205  RH  055%=      5-min Rain = 0
KSC1 271931Z 17010KT 31/21 A2985 RMK A01 T03050205  RH  055%=      5-min Rain = 0
KSC1 271932Z 17012KT 31/20 A2985 RMK A01 T03050202  RH  054%=      5-min Rain = 0
KSC1 271933Z 16011KT 30/20 A2985 RMK A01 T03030196  RH  053%=      5-min Rain = 0
KSC1 271934Z 16010KT 30/20 A2985 RMK A01 T03020199  RH  054%=      5-min Rain = 0
KSC1 271935Z 18011KT 30/20 A2984 RMK A01 T03030202  RH  055%=      5-min Rain = 0
KSC1 271936Z 15012KT 31/20 A2984 RMK A01 T03050203  RH  054%=      5-min Rain = 0
KSC1 271937Z 15009KT 31/20 A2984 RMK A01 T03050204  RH  055%=      5-min Rain = 0
KSC1 271938Z 15009KT 31/21 A2984 RMK A01 T03050205  RH  055%=      5-min Rain = 0
KSC1 271939Z 14011KT 31/21 A2984 RMK A01 T03060205  RH  055%=      5-min Rain = 0
KSC1 271940Z 15009KT 31/20 A2984 RMK A01 T03060203  RH  054%=      5-min Rain = 0
KSC1 271941Z 15010KT 30/20 A2984 RMK A01 T03030203  RH  055%=      5-min Rain = 0
KSC1 271942Z 14010KT 30/20 A2984 RMK A01 T03020204  RH  056%=      5-min Rain = 0
KSC1 271943Z 16013KT 30/20 A2984 RMK A01 T03030203  RH  055%=      5-min Rain = 0
KSC1 271944Z 15011KT 31/20 A2984 RMK A01 T03050202  RH  054%=      5-min Rain = 0
KSC1 271945Z 17010KT 31/20 A2984 RMK A01 T03050202  RH  054%=      5-min Rain = 0
KSC1 271946Z 17009KT 31/20 A2984 RMK A01 T03070203  RH  054%=      5-min Rain = 0
KSC1 271947Z 16011KT 31/20 A2984 RMK A01 T03070203  RH  054%=      5-min Rain = 0
KSC1 271948Z 17012KT 31/20 A2984 RMK A01 T03080202  RH  053%=      5-min Rain = 0
KSC1 271949Z 17009KT 31/20 A2984 RMK A01 T03070201  RH  053%=      5-min Rain = 0
KSC1 271950Z 17010G15KT 31/20 A2983 RMK A01 T03060202  RH  054%=      5-min Rain = 0
KSC1 271951Z 18010KT 31/20 A2983 RMK A01 T03050202  RH  054%=      5-min Rain = 0
KSC1 271952Z 15010KT 31/21 A2983 RMK A01 T03060206  RH  055%=      5-min Rain = 0
KSC1 271953Z 14015KT 31/21 A2983 RMK A01 T03070205  RH  055%=      5-min Rain = 0
KSC1 271954Z 15013KT 31/21 A2983 RMK A01 T03070205  RH  055%=      5-min Rain = 0
KSC1 271955Z 16011KT 31/20 A2983 RMK A01 T03070204  RH  054%=      5-min Rain = 0
KSC1 271956Z 17008KT 31/21 A2983 RMK A01 T03070207  RH  055%=      5-min Rain = 0
KSC1 271957Z 17014KT 31/21 A2983 RMK A01 T03080206  RH  054%=      5-min Rain = 0
KSC1 271958Z 16013KT 31/21 A2983 RMK A01 T03090205  RH  054%=      5-min Rain = 0
KSC1 271959Z 15013KT 31/20 A2983 RMK A01 T03080202  RH  053%=      5-min Rain = 0
KSC1 272000Z 16012KT 31/20 A2983 RMK A01 T03070202  RH  054%=      5-min Rain = 0
KSC1 272001Z 17009KT 31/20 A2983 RMK A01 T03060203  RH  054%=      5-min Rain = 0
KSC1 272002Z 17010KT 31/20 A2983 RMK A01 T03060203  RH  054%=      5-min Rain = 0
KSC1 272003Z 17012KT 31/21 A2983 RMK A01 T03070206  RH  055%=      5-min Rain = 0
KSC1 272004Z 13011KT 31/21 A2983 RMK A01 T03090209  RH  055%=      5-min Rain = 0
KSC1 272005Z 14011KT 31/21 A2983 RMK A01 T03110208  RH  054%=      5-min Rain = 0
KSC1 272006Z 14011G17KT 31/21 A2983 RMK A01 T03110206  RH  054%=      5-min Rain = 0
KSC1 272007Z 15014KT 31/21 A2983 RMK A01 T03110206  RH  054%=      5-min Rain = 0
KSC1 272008Z 16012KT 31/20 A2983 RMK A01 T03110204  RH  053%=      5-min Rain = 0
KSC1 272009Z 16010G15KT 31/20 A2983 RMK A01 T03090204  RH  054%=      5-min Rain = 0
KSC1 272010Z 15011KT 31/21 A2983 RMK A01 T03090205  RH  054%=      5-min Rain = 0
KSC1 272011Z 15009G14KT 31/21 A2983 RMK A01 T03100205  RH  054%=      5-min Rain = 0
KSC1 272012Z 15008G13KT 31/20 A2983 RMK A01 T03100204  RH  053%=      5-min Rain = 0
KSC1 272013Z 15009KT 31/20 A2982 RMK A01 T03090204  RH  054%=      5-min Rain = 0
KSC1 272014Z 15012KT 31/21 A2982 RMK A01 T03080205  RH  054%=      5-min Rain = 0
KSC1 272015Z 15009KT 31/21 A2983 RMK A01 T03090207  RH  055%=      5-min Rain = 0
KSC1 272016Z 16010KT 31/21 A2982 RMK A01 T03120210  RH  055%=      5-min Rain = 0
KSC1 272017Z 17010KT 31/21 A2982 RMK A01 T03140207  RH  053%=      5-min Rain = 0
KSC1 272018Z 15010KT 31/21 A2982 RMK A01 T03130206  RH  053%=      5-min Rain = 0
KSC1 272019Z 15011G16KT 31/21 A2982 RMK A01 T03110208  RH  054%=      5-min Rain = 0
KSC1 272020Z 16013KT 31/21 A2982 RMK A01 T03120207  RH  054%=      5-min Rain = 0
KSC1 272021Z 16013KT 31/20 A2982 RMK A01 T03120204  RH  053%=      5-min Rain = 0
KSC1 272022Z 16011KT 31/20 A2982 RMK A01 T03100203  RH  053%=      5-min Rain = 0
KSC1 272023Z 17013KT 31/20 A2982 RMK A01 T03090204  RH  054%=      5-min Rain = 0
KSC1 272024Z 17010KT 31/20 A2982 RMK A01 T03080203  RH  054%=      5-min Rain = 0
KSC1 272025Z 15009G17KT 31/21 A2982 RMK A01 T03060206  RH  055%=      5-min Rain = 0
KSC1 272026Z 15012KT 31/21 A2982 RMK A01 T03070208  RH  055%=      5-min Rain = 0
KSC1 272027Z 18012KT 31/21 A2982 RMK A01 T03100205  RH  054%=      5-min Rain = 0
KSC1 272028Z 17011KT 31/20 A2982 RMK A01 T03080204  RH  054%=      5-min Rain = 0
KSC1 272029Z 17012KT 31/21 A2982 RMK A01 T03080207  RH  055%=      5-min Rain = 0
KSC1 272030Z 14012KT 31/21 A2982 RMK A01 T03090207  RH  055%=      5-min Rain = 0
KSC1 272031Z 13011KT 31/21 A2982 RMK A01 T03090206  RH  054%=      5-min Rain = 0
KSC1 272032Z 14008G13KT 31/21 A2982 RMK A01 T03100210  RH  055%=      5-min Rain = 0
KSC1 272033Z 17013G19KT 31/21 A2981 RMK A01 T03100206  RH  054%=      5-min Rain = 0
KSC1 272034Z 16011KT 31/21 A2982 RMK A01 T03080205  RH  054%=      5-min Rain = 0
KSC1 272035Z 16011KT 31/20 A2982 RMK A01 T03070204  RH  054%=      5-min Rain = 0
KSC1 272036Z 16012KT 31/21 A2981 RMK A01 T03070205  RH  054%=      5-min Rain = 0
KSC1 272037Z 15012KT 31/21 A2981 RMK A01 T03090205  RH  054%=      5-min Rain = 0
KSC1 272038Z 18011KT 31/20 A2981 RMK A01 T03100203  RH  053%=      5-min Rain = 0
KSC1 272039Z 17009KT 31/20 A2981 RMK A01 T03100204  RH  053%=      5-min Rain = 0
KSC1 272040Z 14011KT 31/21 A2981 RMK A01 T03110206  RH  054%=      5-min Rain = 0
KSC1 272041Z 14013KT 31/21 A2981 RMK A01 T03110206  RH  054%=      5-min Rain = 0
KSC1 272042Z 16013KT 31/21 A2981 RMK A01 T03110207  RH  054%=      5-min Rain = 0
KSC1 272043Z 16012KT 31/20 A2981 RMK A01 T03120203  RH  052%=      5-min Rain = 0
KSC1 272044Z 16011KT 31/20 A2981 RMK A01 T03110201  RH  052%=      5-min Rain = 0
KSC1 272045Z 17012KT 31/20 A2981 RMK A01 T03090202  RH  053%=      5-min Rain = 0
KSC1 272046Z 16012KT 31/21 A2981 RMK A01 T03090205  RH  054%=      5-min Rain = 0
KSC1 272047Z 16013KT 31/20 A2981 RMK A01 T03100204  RH  053%=      5-min Rain = 0
KSC1 272048Z 17013KT 31/21 A2981 RMK A01 T03110205  RH  053%=      5-min Rain = 0
KSC1 272049Z 17013KT 31/20 A2981 RMK A01 T03110203  RH  053%=      5-min Rain = 0
KSC1 272050Z 16010G15KT 31/21 A2981 RMK A01 T03110205  RH  053%=      5-min Rain = 0
KSC1 272051Z 17010KT 31/20 A2981 RMK A01 T03120204  RH  053%=      5-min Rain = 0
KSC1 272052Z 18010KT 31/20 A2981 RMK A01 T03130204  RH  052%=      5-min Rain = 0
KSC1 272053Z 17014KT 31/21 A2981 RMK A01 T03130206  RH  053%=      5-min Rain = 0
KSC1 272054Z 15013KT 31/20 A2981 RMK A01 T03120202  RH  052%=      5-min Rain = 0
KSC1 272055Z 17015KT 31/20 A2981 RMK A01 T03110204  RH  053%=      5-min Rain = 0
KSC1 272056Z 17014KT 31/20 A2981 RMK A01 T03100203  RH  053%=      5-min Rain = 0
KSC1 272057Z 17012KT 31/20 A2981 RMK A01 T03090204  RH  053%=      5-min Rain = 0
KSC1 272058Z 16009KT 31/21 A2981 RMK A01 T03090205  RH  054%=      5-min Rain = 0
KSC1 272059Z 17009KT 31/20 A2981 RMK A01 T03100204  RH  053%=      5-min Rain = 0
KSC1 272100Z 14012G18KT 31/21 A298 RMK A01 T03110207  RH  054%=      5-min Rain = 0
KSC1 272101Z 14013KT 31/20 A2981 RMK A01 T03120203  RH  052%=      5-min Rain = 0
KSC1 272102Z 15013KT 31/20 A298 RMK A01 T03120202  RH  052%=      5-min Rain = 0
KSC1 272103Z 16014KT 31/20 A298 RMK A01 T03120202  RH  052%=      5-min Rain = 0
KSC1 272104Z 16012KT 31/20 A298 RMK A01 T03110203  RH  053%=      5-min Rain = 0
KSC1 272105Z 15010G16KT 31/20 A298 RMK A01 T03110204  RH  053%=      5-min Rain = 0
KSC1 272106Z 16007G12KT 31/21 A298 RMK A01 T03120207  RH  054%=      5-min Rain = 0
KSC1 272107Z 16011G16KT 31/20 A298 RMK A01 T03140203  RH  052%=      5-min Rain = 0
KSC1 272108Z 16011G16KT 32/20 A298 RMK A01 T03150203  RH  052%=      5-min Rain = 0
KSC1 272109Z 15011KT 31/20 A298 RMK A01 T03140202  RH  052%=      5-min Rain = 0
KSC1 272110Z 15011G17KT 31/21 A298 RMK A01 T03140205  RH  052%=      5-min Rain = 0
KSC1 272111Z 16015KT 32/20 A298 RMK A01 T03150202  RH  051%=      5-min Rain = 0
KSC1 272112Z 16012KT 31/20 A298 RMK A01 T03130201  RH  051%=      5-min Rain = 0
KSC1 272113Z 15012KT 31/20 A298 RMK A01 T03110203  RH  052%=      5-min Rain = 0
KSC1 272114Z 15011KT 31/20 A298 RMK A01 T03110202  RH  052%=      5-min Rain = 0
KSC1 272115Z 14012KT 31/20 A298 RMK A01 T03120201  RH  052%=      5-min Rain = 0
KSC1 272116Z 13010KT 31/20 A298 RMK A01 T03120204  RH  053%=      5-min Rain = 0
KSC1 272117Z 14012KT 31/20 A298 RMK A01 T03130202  RH  052%=      5-min Rain = 0
KSC1 272118Z 15011KT 31/20 A298 RMK A01 T03130202  RH  052%=      5-min Rain = 0
KSC1 272119Z 16011KT 31/20 A298 RMK A01 T03120201  RH  052%=      5-min Rain = 0
KSC1 272120Z 17010KT 31/21 A298 RMK A01 T03120205  RH  053%=      5-min Rain = 0
KSC1 272121Z 17012KT 31/20 A2979 RMK A01 T03140203  RH  052%=      5-min Rain = 0
KSC1 272122Z 15010KT 32/20 A2979 RMK A01 T03150204  RH  052%=      5-min Rain = 0
KSC1 272123Z 16011KT 32/21 A2979 RMK A01 T03160205  RH  052%=      5-min Rain = 0
KSC1 272124Z 16012KT 32/20 A2979 RMK A01 T03160201  RH  051%=      5-min Rain = 0
KSC1 272125Z 17010KT 32/20 A2979 RMK A01 T03150204  RH  052%=      5-min Rain = 0
KSC1 272126Z 17014KT 32/20 A2979 RMK A01 T03150201  RH  051%=      5-min Rain = 0
KSC1 272127Z 18011KT 31/20 A2979 RMK A01 T03140198  RH  050%=      5-min Rain = 0
KSC1 272128Z 16011KT 31/20 A2979 RMK A01 T03130199  RH  051%=      5-min Rain = 0
KSC1 272129Z 15012KT 31/20 A2979 RMK A01 T03130199  RH  051%=      5-min Rain = 0
KSC1 272130Z 15015G20KT 31/20 A2979 RMK A01 T03130201  RH  052%=      5-min Rain = 0
KSC1 272131Z 16015KT 31/20 A2979 RMK A01 T03130199  RH  051%=      5-min Rain = 0
KSC1 272132Z 16013KT 31/20 A2979 RMK A01 T03120198  RH  051%=      5-min Rain = 0
KSC1 272133Z 15013KT 31/20 A2979 RMK A01 T03110198  RH  051%=      5-min Rain = 0
KSC1 272134Z 16013KT 31/20 A2979 RMK A01 T03110198  RH  051%=      5-min Rain = 0
KSC1 272135Z 16011KT 31/20 A2979 RMK A01 T03100198  RH  051%=      5-min Rain = 0
KSC1 272136Z 16008KT 31/20 A2979 RMK A01 T03100201  RH  052%=      5-min Rain = 0
KSC1 272137Z 16013KT 31/20 A2979 RMK A01 T03120204  RH  053%=      5-min Rain = 0
KSC1 272138Z 17016KT 31/20 A2979 RMK A01 T03140199  RH  051%=      5-min Rain = 0
KSC1 272139Z 16014KT 31/20 A2979 RMK A01 T03140199  RH  050%=      5-min Rain = 0
KSC1 272140Z 15010KT 31/20 A2978 RMK A01 T03130199  RH  051%=      5-min Rain = 0
KSC1 272141Z 15011G17KT 31/20 A2978 RMK A01 T03130201  RH  051%=      5-min Rain = 0
KSC1 272142Z 15015G22KT 31/20 A2978 RMK A01 T03130198  RH  050%=      5-min Rain = 0
KSC1 272143Z 14014G20KT 31/20 A2978 RMK A01 T03130197  RH  050%=      5-min Rain = 0
KSC1 272144Z 15011KT 31/20 A2978 RMK A01 T03130201  RH  051%=      5-min Rain = 0
KSC1 272145Z 15017KT 31/20 A2978 RMK A01 T03140199  RH  051%=      5-min Rain = 0
KSC1 272146Z 16012KT 31/20 A2978 RMK A01 T03140200  RH  051%=      5-min Rain = 0
KSC1 272147Z 16014KT 31/20 A2978 RMK A01 T03130202  RH  052%=      5-min Rain = 0
KSC1 272148Z 15012KT 31/20 A2978 RMK A01 T03130201  RH  051%=      5-min Rain = 0
KSC1 272149Z 14014G19KT 31/20 A2978 RMK A01 T03130200  RH  051%=      5-min Rain = 0
KSC1 272150Z 14014KT 31/20 A2978 RMK A01 T03120198  RH  051%=      5-min Rain = 0
KSC1 272151Z 15012G17KT 31/19 A2978 RMK A01 T03120194  RH  049%=      5-min Rain = 0
KSC1 272152Z 15013KT 31/19 A2978 RMK A01 T03130194  RH  049%=      5-min Rain = 0
KSC1 272153Z 15013G18KT 31/20 A2978 RMK A01 T03140197  RH  050%=      5-min Rain = 0
KSC1 272154Z 14014KT 31/20 A2978 RMK A01 T03140200  RH  051%=      5-min Rain = 0
KSC1 272155Z 15012KT 31/20 A2978 RMK A01 T03140201  RH  051%=      5-min Rain = 0
KSC1 272156Z 14011KT 31/20 A2978 RMK A01 T03140202  RH  051%=      5-min Rain = 0
KSC1 272157Z 13010KT 31/20 A2977 RMK A01 T03130200  RH  051%=      5-min Rain = 0
KSC1 272158Z 13010G15KT 31/20 A2977 RMK A01 T03120204  RH  053%=      5-min Rain = 0
KSC1 272159Z 13013G18KT 31/20 A2977 RMK A01 T03140202  RH  052%=      5-min Rain = 0
KSC1 272200Z 14016KT 32/20 A2977 RMK A01 T03150196  RH  049%=      5-min Rain = 0
KSC1 272201Z 15013G19KT 32/19 A2978 RMK A01 T03150190  RH  047%=      5-min Rain = 0
KSC1 272202Z 16013KT 31/19 A2977 RMK A01 T03140194  RH  049%=      5-min Rain = 0
KSC1 272203Z 16011KT 31/20 A2977 RMK A01 T03140197  RH  050%=      5-min Rain = 0
KSC1 272204Z 16012KT 32/20 A2977 RMK A01 T03150196  RH  049%=      5-min Rain = 0
KSC1 272205Z 16014KT 32/20 A2977 RMK A01 T03150195  RH  049%=      5-min Rain = 0
KSC1 272206Z 16011KT 32/20 A2977 RMK A01 T03150197  RH  050%=      5-min Rain = 0
KSC1 272207Z 16012KT 32/20 A2977 RMK A01 T03160199  RH  050%=      5-min Rain = 0
KSC1 272208Z 16015KT 32/20 A2977 RMK A01 T03170196  RH  049%=      5-min Rain = 0
KSC1 272209Z 16010KT 32/20 A2977 RMK A01 T03160198  RH  050%=      5-min Rain = 0
KSC1 272210Z 15013KT 32/20 A2977 RMK A01 T03160200  RH  050%=      5-min Rain = 0
KSC1 272211Z 16015KT 32/20 A2977 RMK A01 T03150199  RH  050%=      5-min Rain = 0
KSC1 272212Z 17013KT 32/20 A2977 RMK A01 T03150201  RH  051%=      5-min Rain = 0
KSC1 272213Z 16014G19KT 32/20 A2977 RMK A01 T03150199  RH  050%=      5-min Rain = 0
KSC1 272214Z 14017KT 31/20 A2977 RMK A01 T03140200  RH  051%=      5-min Rain = 0
KSC1 272215Z 13012KT 31/20 A2977 RMK A01 T03140197  RH  050%=      5-min Rain = 0
KSC1 272216Z 14013KT 31/20 A2977 RMK A01 T03120198  RH  051%=      5-min Rain = 0
KSC1 272217Z 14014G19KT 31/20 A2977 RMK A01 T03120197  RH  051%=      5-min Rain = 0
KSC1 272218Z 14015KT 31/20 A2977 RMK A01 T03120197  RH  051%=      5-min Rain = 0
KSC1 272219Z 14014KT 31/20 A2977 RMK A01 T03130199  RH  051%=      5-min Rain = 0
KSC1 272220Z 15010KT 31/20 A2977 RMK A01 T03140200  RH  051%=      5-min Rain = 0
KSC1 272221Z 15014KT 32/20 A2977 RMK A01 T03150200  RH  051%=      5-min Rain = 0
KSC1 272222Z 15016KT 32/20 A2977 RMK A01 T03150199  RH  050%=      5-min Rain = 0
KSC1 272223Z 16017KT 32/20 A2977 RMK A01 T03150196  RH  049%=      5-min Rain = 0
KSC1 272224Z 15013KT 31/20 A2977 RMK A01 T03140195  RH  049%=      5-min Rain = 0
KSC1 272225Z 17014KT 31/20 A2977 RMK A01 T03130197  RH  050%=      5-min Rain = 0
KSC1 272226Z 16014KT 31/20 A2977 RMK A01 T03130197  RH  050%=      5-min Rain = 0
KSC1 272227Z 16015KT 31/20 A2977 RMK A01 T03120195  RH  050%=      5-min Rain = 0
KSC1 272228Z 16016KT 31/20 A2977 RMK A01 T03120195  RH  050%=      5-min Rain = 0
KSC1 272229Z 15013KT 31/20 A2977 RMK A01 T03120195  RH  050%=      5-min Rain = 0
KSC1 272230Z 15011KT 31/20 A2976 RMK A01 T03130195  RH  050%=      5-min Rain = 0
KSC1 272231Z 16012KT 31/20 A2976 RMK A01 T03140199  RH  050%=      5-min Rain = 0
KSC1 272232Z 16011G16KT 32/20 A2976 RMK A01 T03150201  RH  051%=      5-min Rain = 0
KSC1 272233Z 13015KT 32/20 A2976 RMK A01 T03150197  RH  050%=      5-min Rain = 0
KSC1 272234Z 15012KT 32/20 A2976 RMK A01 T03150195  RH  049%=      5-min Rain = 0
KSC1 272235Z 14014KT 32/20 A2976 RMK A01 T03150198  RH  050%=      5-min Rain = 0
KSC1 272236Z 14016KT 32/19 A2976 RMK A01 T03150194  RH  049%=      5-min Rain = 0
KSC1 272237Z 14012KT 31/19 A2976 RMK A01 T03130193  RH  049%=      5-min Rain = 0
KSC1 272238Z 16014KT 31/20 A2976 RMK A01 T03130196  RH  050%=      5-min Rain = 0
KSC1 272239Z 15011KT 31/20 A2976 RMK A01 T03130195  RH  050%=      5-min Rain = 0
KSC1 272240Z 15015G20KT 31/20 A2976 RMK A01 T03140196  RH  050%=      5-min Rain = 0
KSC1 272241Z 15015G20KT 31/20 A2976 RMK A01 T03140196  RH  050%=      5-min Rain = 0
KSC1 272242Z 14015G20KT 31/20 A2976 RMK A01 T03140197  RH  050%=      5-min Rain = 0
KSC1 272243Z 14014G19KT 31/20 A2976 RMK A01 T03130197  RH  050%=      5-min Rain = 0
KSC1 272244Z 15016KT 31/20 A2976 RMK A01 T03130198  RH  051%=      5-min Rain = 0
KSC1 272245Z 15015KT 31/20 A2976 RMK A01 T03130196  RH  050%=      5-min Rain = 0
KSC1 272246Z 14016KT 31/19 A2976 RMK A01 T03130193  RH  049%=      5-min Rain = 0
KSC1 272247Z 15012KT 31/19 A2976 RMK A01 T03130193  RH  049%=      5-min Rain = 0
KSC1 272248Z 16014KT 31/20 A2976 RMK A01 T03130195  RH  049%=      5-min Rain = 0
KSC1 272249Z 16011KT 31/20 A2976 RMK A01 T03130197  RH  050%=      5-min Rain = 0
KSC1 272250Z 16011G17KT 31/20 A2976 RMK A01 T03130200  RH  051%=      5-min Rain = 0
KSC1 272251Z 16014G19KT 31/20 A2976 RMK A01 T03130198  RH  050%=      5-min Rain = 0
KSC1 272252Z 16016KT 32/19 A2976 RMK A01 T03150193  RH  048%=      5-min Rain = 0
KSC1 272253Z 16015G20KT 31/19 A2976 RMK A01 T03140192  RH  049%=      5-min Rain = 0
KSC1 272254Z 16012KT 31/19 A2976 RMK A01 T03120194  RH  049%=      5-min Rain = 0
KSC1 272255Z 16011KT 31/20 A2975 RMK A01 T03120195  RH  050%=      5-min Rain = 0
KSC1 272256Z 16012KT 31/20 A2976 RMK A01 T03120196  RH  050%=      5-min Rain = 0
KSC1 272257Z 15011KT 31/20 A2976 RMK A01 T03130198  RH  051%=      5-min Rain = 0
KSC1 272258Z 16010KT 31/20 A2976 RMK A01 T03140201  RH  051%=      5-min Rain = 0
KSC1 272259Z 17011KT 32/20 A2975 RMK A01 T03160199  RH  050%=      5-min Rain = 0
KSC1 272300Z 16014KT 32/20 A2975 RMK A01 T03160198  RH  050%=      5-min Rain = 0
KSC1 272301Z 17013KT 32/20 A2975 RMK A01 T03150196  RH  049%=      5-min Rain = 0
KSC1 272302Z 16016KT 31/19 A2975 RMK A01 T03140192  RH  048%=      5-min Rain = 0
KSC1 272303Z 16011G16KT 31/19 A2975 RMK A01 T03130193  RH  049%=      5-min Rain = 0
KSC1 272304Z 17012G17KT 31/20 A2975 RMK A01 T03120196  RH  050%=      5-min Rain = 0
KSC1 272305Z 16017KT 31/19 A2975 RMK A01 T03130193  RH  049%=      5-min Rain = 0
KSC1 272306Z 16016KT 31/19 A2975 RMK A01 T03130193  RH  049%=      5-min Rain = 0
KSC1 272307Z 16016KT 31/19 A2975 RMK A01 T03120194  RH  050%=      5-min Rain = 0
KSC1 272308Z 15015G22KT 31/20 A2975 RMK A01 T03110197  RH  051%=      5-min Rain = 0
KSC1 272309Z 16016G21KT 31/20 A2975 RMK A01 T03110195  RH  050%=      5-min Rain = 0
KSC1 272310Z 15017G22KT 31/19 A2975 RMK A01 T03110191  RH  049%=      5-min Rain = 0
KSC1 272311Z 16016KT 31/19 A2975 RMK A01 T03100191  RH  049%=      5-min Rain = 0
KSC1 272312Z 16016KT 31/19 A2975 RMK A01 T03100193  RH  050%=      5-min Rain = 0
KSC1 272313Z 16014G20KT 31/19 A2975 RMK A01 T03100194  RH  050%=      5-min Rain = 0
KSC1 272314Z 16014KT 31/19 A2975 RMK A01 T03090194  RH  050%=      5-min Rain = 0
KSC1 272315Z 14014KT 31/19 A2975 RMK A01 T03100194  RH  050%=      5-min Rain = 0
KSC1 272316Z 14014KT 31/20 A2975 RMK A01 T03100195  RH  050%=      5-min Rain = 0
KSC1 272317Z 14015KT 31/20 A2975 RMK A01 T03110195  RH  050%=      5-min Rain = 0
KSC1 272318Z 14014KT 31/20 A2975 RMK A01 T03100195  RH  050%=      5-min Rain = 0
KSC1 272319Z 15010G16KT 31/20 A2975 RMK A01 T03100198  RH  051%=      5-min Rain = 0
KSC1 272320Z 14011KT 31/20 A2975 RMK A01 T03100199  RH  052%=      5-min Rain = 0
KSC1 272321Z 14014KT 31/20 A2975 RMK A01 T03110197  RH  051%=      5-min Rain = 0
KSC1 272322Z 14014G19KT 31/20 A2975 RMK A01 T03120195  RH  050%=      5-min Rain = 0
KSC1 272323Z 14015G20KT 31/19 A2975 RMK A01 T03120191  RH  049%=      5-min Rain = 0
KSC1 272324Z 15014KT 31/19 A2975 RMK A01 T03110190  RH  049%=      5-min Rain = 0
KSC1 272325Z 15012G17KT 31/19 A2975 RMK A01 T03110193  RH  049%=      5-min Rain = 0
KSC1 272326Z 16016KT 31/19 A2975 RMK A01 T03110194  RH  050%=      5-min Rain = 0
KSC1 272327Z 16014G21KT 31/20 A2975 RMK A01 T03100196  RH  051%=      5-min Rain = 0
KSC1 272328Z 16014KT 31/20 A2975 RMK A01 T03090196  RH  051%=      5-min Rain = 0
KSC1 272329Z 16015KT 31/20 A2975 RMK A01 T03090196  RH  051%=      5-min Rain = 0
KSC1 272330Z 15015KT 31/20 A2975 RMK A01 T03090198  RH  052%=      5-min Rain = 0
KSC1 272331Z 15013G20KT 31/20 A2975 RMK A01 T03090200  RH  052%=      5-min Rain = 0
KSC1 272332Z 15016KT 31/20 A2975 RMK A01 T03090199  RH  052%=      5-min Rain = 0
KSC1 272333Z 15018KT 31/20 A2975 RMK A01 T03090197  RH  051%=      5-min Rain = 0
KSC1 272334Z 15017KT 31/19 A2975 RMK A01 T03090193  RH  050%=      5-min Rain = 0
KSC1 272335Z 15015G20KT 31/19 A2975 RMK A01 T03090193  RH  050%=      5-min Rain = 0
KSC1 272336Z 15016KT 31/19 A2975 RMK A01 T03090194  RH  050%=      5-min Rain = 0
KSC1 272337Z 15013KT 31/20 A2975 RMK A01 T03090195  RH  051%=      5-min Rain = 0
KSC1 272338Z 15013G18KT 31/20 A2975 RMK A01 T03080195  RH  051%=      5-min Rain = 0
KSC1 272339Z 15013KT 31/20 A2975 RMK A01 T03080197  RH  052%=      5-min Rain = 0
KSC1 272340Z 15012KT 31/20 A2975 RMK A01 T03080198  RH  052%=      5-min Rain = 0
KSC1 272341Z 16013KT 31/20 A2975 RMK A01 T03080199  RH  052%=      5-min Rain = 0
KSC1 272342Z 14012KT 31/20 A2975 RMK A01 T03080198  RH  052%=      5-min Rain = 0
KSC1 272343Z 15016G21KT 31/20 A2974 RMK A01 T03080198  RH  052%=      5-min Rain = 0
KSC1 272344Z 14014KT 31/20 A2975 RMK A01 T03080198  RH  052%=      5-min Rain = 0
KSC1 272345Z 15012KT 31/20 A2975 RMK A01 T03080198  RH  052%=      5-min Rain = 0
KSC1 272346Z 15010KT 31/20 A2974 RMK A01 T03080199  RH  052%=      5-min Rain = 0
KSC1 272347Z 16011KT 31/20 A2974 RMK A01 T03080200  RH  052%=      5-min Rain = 0
KSC1 272348Z 16014KT 31/20 A2974 RMK A01 T03090199  RH  052%=      5-min Rain = 0
KSC1 272349Z 16016KT 31/20 A2974 RMK A01 T03080197  RH  051%=      5-min Rain = 0
KSC1 272350Z 15012G18KT 31/20 A2974 RMK A01 T03070197  RH  052%=      5-min Rain = 0
KSC1 272351Z 15011KT 31/20 A2974 RMK A01 T03070198  RH  052%=      5-min Rain = 0
KSC1 272352Z 15014KT 31/20 A2974 RMK A01 T03070197  RH  052%=      5-min Rain = 0
KSC1 272353Z 16010KT 31/20 A2974 RMK A01 T03070197  RH  052%=      5-min Rain = 0
KSC1 272354Z 15009G15KT 31/20 A2974 RMK A01 T03070200  RH  053%=      5-min Rain = 0
KSC1 272355Z 16011KT 31/20 A2974 RMK A01 T03070198  RH  052%=      5-min Rain = 0
KSC1 272356Z 15012KT 31/20 A2974 RMK A01 T03070197  RH  052%=      5-min Rain = 0
KSC1 272357Z 16014KT 31/20 A2974 RMK A01 T03070198  RH  052%=      5-min Rain = 0
KSC1 272358Z 16014KT 31/20 A2974 RMK A01 T03070196  RH  052%=      5-min Rain = 0
KSC1 272359Z 15012KT 31/20 A2974 RMK A01 T03060196  RH  052%=      5-min Rain = 0
KSC1 280000Z 15014KT 31/20 A2974 RMK A01 T03060197  RH  052%=      5-min Rain = 0
KSC1 280001Z 15013KT 31/20 A2974 RMK A01 T03060197  RH  052%=      5-min Rain = 0
KSC1 280002Z 14011G17KT 31/20 A2974 RMK A01 T03060198  RH  053%=      5-min Rain = 0
KSC1 280003Z 14015KT 31/20 A2974 RMK A01 T03060196  RH  052%=      5-min Rain = 0
KSC1 280004Z 14017KT 31/20 A2974 RMK A01 T03060195  RH  052%=      5-min Rain = 0
KSC1 280005Z 14011KT 31/20 A2974 RMK A01 T03050195  RH  052%=      5-min Rain = 0
KSC1 280006Z 15014G19KT 30/20 A2974 RMK A01 T03040197  RH  053%=      5-min Rain = 0
KSC1 280007Z 15013G19KT 30/20 A2974 RMK A01 T03040196  RH  052%=      5-min Rain = 0
KSC1 280008Z 14015G20KT 30/20 A2974 RMK A01 T03040197  RH  053%=      5-min Rain = 0
KSC1 280009Z 14014KT 30/20 A2974 RMK A01 T03030196  RH  053%=      5-min Rain = 0
KSC1 280010Z 14018KT 30/20 A2974 RMK A01 T03030196  RH  053%=      5-min Rain = 0
KSC1 280011Z 15015KT 30/20 A2974 RMK A01 T03030197  RH  053%=      5-min Rain = 0
KSC1 280012Z 15017G22KT 30/20 A2974 RMK A01 T03030197  RH  053%=      5-min Rain = 0
KSC1 280013Z 15017G22KT 30/20 A2974 RMK A01 T03020196  RH  053%=      5-min Rain = 0
KSC1 280014Z 15016KT 30/20 A2973 RMK A01 T03020196  RH  053%=      5-min Rain = 0
KSC1 280015Z 15014G19KT 30/20 A2974 RMK A01 T03020197  RH  053%=      5-min Rain = 0
KSC1 280016Z 15014KT 30/20 A2974 RMK A01 T03020195  RH  053%=      5-min Rain = 0
KSC1 280017Z 14016KT 30/19 A2974 RMK A01 T03020194  RH  052%=      5-min Rain = 0
KSC1 280018Z 14015KT 30/19 A2973 RMK A01 T03020193  RH  052%=      5-min Rain = 0
KSC1 280019Z 15016KT 30/19 A2973 RMK A01 T03020192  RH  052%=      5-min Rain = 0
KSC1 280020Z 15017G22KT 30/19 A2973 RMK A01 T03020192  RH  052%=      5-min Rain = 0
KSC1 280021Z 15012KT 30/19 A2973 RMK A01 T03020193  RH  052%=      5-min Rain = 0
KSC1 280022Z 15015KT 30/19 A2973 RMK A01 T03010194  RH  053%=      5-min Rain = 0
KSC1 280023Z 15014KT 30/19 A2973 RMK A01 T03010194  RH  053%=      5-min Rain = 0
KSC1 280024Z 15013G18KT 30/20 A2973 RMK A01 T03010195  RH  053%=      5-min Rain = 0
KSC1 280025Z 15013KT 30/20 A2973 RMK A01 T03010195  RH  053%=      5-min Rain = 0
KSC1 280026Z 14012G17KT 30/20 A2973 RMK A01 T03010195  RH  053%=      5-min Rain = 0
KSC1 280027Z 14013KT 30/20 A2973 RMK A01 T03010195  RH  053%=      5-min Rain = 0
KSC1 280028Z 15009KT 30/20 A2973 RMK A01 T03010196  RH  053%=      5-min Rain = 0
KSC1 280029Z 14008KT 30/20 A2973 RMK A01 T03010197  RH  054%=      5-min Rain = 0
KSC1 280030Z 14011KT 30/20 A2973 RMK A01 T03010197  RH  054%=      5-min Rain = 0
KSC1 280031Z 15014G20KT 30/20 A2973 RMK A01 T03010196  RH  053%=      5-min Rain = 0
KSC1 280032Z 15013KT 30/19 A2973 RMK A01 T03000192  RH  052%=      5-min Rain = 0
KSC1 280033Z 15017KT 30/19 A2973 RMK A01 T03000191  RH  052%=      5-min Rain = 0
KSC1 280034Z 15017KT 30/19 A2973 RMK A01 T03000190  RH  052%=      5-min Rain = 0
KSC1 280035Z 15014KT 30/19 A2973 RMK A01 T03000191  RH  052%=      5-min Rain = 0
KSC1 280036Z 15014G19KT 30/19 A2973 RMK A01 T03000191  RH  052%=      5-min Rain = 0
KSC1 280037Z 13013KT 30/19 A2973 RMK A01 T02990191  RH  052%=      5-min Rain = 0
KSC1 280038Z 14017KT 30/19 A2973 RMK A01 T02990191  RH  052%=      5-min Rain = 0
KSC1 280039Z 15015G20KT 30/19 A2973 RMK A01 T02990190  RH  052%=      5-min Rain = 0
KSC1 280040Z 14014KT 30/19 A2973 RMK A01 T02980191  RH  053%=      5-min Rain = 0
KSC1 280041Z 14013KT 30/19 A2973 RMK A01 T02980191  RH  053%=      5-min Rain = 0
KSC1 280042Z 14012KT 30/19 A2973 RMK A01 T02980190  RH  053%=      5-min Rain = 0
KSC1 280043Z 14014G19KT 30/19 A2973 RMK A01 T02980191  RH  053%=      5-min Rain = 0
KSC1 280044Z 15013KT 30/19 A2973 RMK A01 T02970188  RH  052%=      5-min Rain = 0
KSC1 280045Z 15012KT 30/19 A2973 RMK A01 T02970188  RH  052%=      5-min Rain = 0
KSC1 280046Z 15013G18KT 30/19 A2973 RMK A01 T02970189  RH  052%=      5-min Rain = 0
KSC1 280047Z 14015KT 30/19 A2973 RMK A01 T02970187  RH  052%=      5-min Rain = 0
KSC1 280048Z 14014G19KT 30/19 A2973 RMK A01 T02960188  RH  052%=      5-min Rain = 0
KSC1 280049Z 14011KT 30/19 A2973 RMK A01 T02960188  RH  052%=      5-min Rain = 0
KSC1 280050Z 14011KT 30/19 A2973 RMK A01 T02960189  RH  053%=      5-min Rain = 0
KSC1 280051Z 14012G18KT 30/19 A2973 RMK A01 T02950190  RH  053%=      5-min Rain = 0
KSC1 280052Z 14012KT 30/19 A2972 RMK A01 T02950189  RH  053%=      5-min Rain = 0
KSC1 280053Z 14012KT 29/19 A2972 RMK A01 T02940189  RH  053%=      5-min Rain = 0
KSC1 280054Z 14014KT 29/19 A2973 RMK A01 T02940189  RH  053%=      5-min Rain = 0
KSC1 280055Z 15011KT 29/19 A2973 RMK A01 T02940189  RH  053%=      5-min Rain = 0
KSC1 280056Z 14012G17KT 29/19 A2973 RMK A01 T02940190  RH  054%=      5-min Rain = 0
KSC1 280057Z 14016KT 29/19 A2973 RMK A01 T02930189  RH  053%=      5-min Rain = 0
KSC1 280058Z 14014KT 29/19 A2973 RMK A01 T02940189  RH  053%=      5-min Rain = 0
KSC1 280059Z 14013KT 29/19 A2973 RMK A01 T02930189  RH  053%=      5-min Rain = 0
KSC1 280100Z 14014KT 29/19 A2973 RMK A01 T02930189  RH  053%=      5-min Rain = 0
KSC1 280101Z 15012KT 29/19 A2973 RMK A01 T02930190  RH  054%=      5-min Rain = 0
KSC1 280102Z 15011KT 29/19 A2973 RMK A01 T02920190  RH  054%=      5-min Rain = 0
KSC1 280103Z 15015G20KT 29/19 A2973 RMK A01 T02920190  RH  054%=      5-min Rain = 0
KSC1 280104Z 15012KT 29/19 A2973 RMK A01 T02920190  RH  054%=      5-min Rain = 0
KSC1 280105Z 15014KT 29/19 A2973 RMK A01 T02910190  RH  054%=      5-min Rain = 0
KSC1 280106Z 15010KT 29/19 A2973 RMK A01 T02910190  RH  054%=      5-min Rain = 0
KSC1 280107Z 15011G16KT 29/19 A2973 RMK A01 T02910190  RH  055%=      5-min Rain = 0
KSC1 280108Z 14012G18KT 29/19 A2973 RMK A01 T02900190  RH  055%=      5-min Rain = 0
KSC1 280109Z 14011KT 29/19 A2973 RMK A01 T02890189  RH  055%=      5-min Rain = 0
KSC1 280110Z 15013G18KT 29/19 A2973 RMK A01 T02900190  RH  055%=      5-min Rain = 0
KSC1 280111Z 15011G17KT 29/19 A2973 RMK A01 T02890190  RH  055%=      5-min Rain = 0
KSC1 280112Z 14012KT 29/19 A2973 RMK A01 T02890191  RH  055%=      5-min Rain = 0
KSC1 280113Z 14011KT 29/19 A2973 RMK A01 T02880190  RH  055%=      5-min Rain = 0
KSC1 280114Z 14012KT 29/19 A2973 RMK A01 T02880191  RH  056%=      5-min Rain = 0
KSC1 280115Z 14012KT 29/19 A2973 RMK A01 T02880191  RH  056%=      5-min Rain = 0
KSC1 280116Z 14012KT 29/19 A2973 RMK A01 T02880191  RH  056%=      5-min Rain = 0
KSC1 280117Z 14010KT 29/19 A2973 RMK A01 T02870191  RH  056%=      5-min Rain = 0
KSC1 280118Z 15011G18KT 29/19 A2973 RMK A01 T02870191  RH  056%=      5-min Rain = 0
KSC1 280119Z 14013KT 29/19 A2973 RMK A01 T02860191  RH  056%=      5-min Rain = 0
KSC1 280120Z 15014KT 29/19 A2973 RMK A01 T02860191  RH  056%=      5-min Rain = 0
KSC1 280121Z 15013KT 29/19 A2973 RMK A01 T02860190  RH  056%=      5-min Rain = 0
KSC1 280122Z 15013KT 29/19 A2973 RMK A01 T02860191  RH  056%=      5-min Rain = 0
KSC1 280123Z 14011KT 29/19 A2973 RMK A01 T02860191  RH  057%=      5-min Rain = 0
KSC1 280124Z 14015G20KT 29/19 A2973 RMK A01 T02850191  RH  057%=      5-min Rain = 0
KSC1 280125Z 14015G20KT 29/19 A2973 RMK A01 T02850190  RH  057%=      5-min Rain = 0
KSC1 280126Z 14011KT 29/19 A2973 RMK A01 T02850191  RH  057%=      5-min Rain = 0
KSC1 280127Z 15011KT 29/19 A2973 RMK A01 T02850191  RH  057%=      5-min Rain = 0
KSC1 280128Z 14011KT 28/19 A2973 RMK A01 T02840191  RH  057%=      5-min Rain = 0
KSC1 280129Z 15012KT 28/19 A2973 RMK A01 T02830191  RH  057%=      5-min Rain = 0
KSC1 280130Z 15010G15KT 28/19 A2973 RMK A01 T02830191  RH  057%=      5-min Rain = 0
KSC1 280131Z 14010KT 28/19 A2973 RMK A01 T02830191  RH  058%=      5-min Rain = 0
KSC1 280132Z 15010KT 28/19 A2972 RMK A01 T02820192  RH  058%=      5-min Rain = 0
KSC1 280133Z 14010KT 28/19 A2972 RMK A01 T02810192  RH  058%=      5-min Rain = 0
KSC1 280134Z 14013KT 28/19 A2972 RMK A01 T02810192  RH  058%=      5-min Rain = 0
KSC1 280135Z 14009G14KT 28/19 A2972 RMK A01 T02800192  RH  058%=      5-min Rain = 0
KSC1 280136Z 14011KT 28/19 A2972 RMK A01 T02800192  RH  059%=      5-min Rain = 0
KSC1 280137Z 14008KT 28/19 A2972 RMK A01 T02800192  RH  059%=      5-min Rain = 0
KSC1 280138Z 13010KT 28/19 A2972 RMK A01 T02790193  RH  059%=      5-min Rain = 0
KSC1 280139Z 14008KT 28/19 A2972 RMK A01 T02780193  RH  060%=      5-min Rain = 0
KSC1 280140Z 14013KT 28/19 A2972 RMK A01 T02770193  RH  060%=      5-min Rain = 0
KSC1 280141Z 14009G14KT 28/19 A2972 RMK A01 T02770193  RH  060%=      5-min Rain = 0
KSC1 280142Z 14010KT 28/19 A2972 RMK A01 T02760193  RH  060%=      5-min Rain = 0
KSC1 280143Z 14010KT 28/19 A2972 RMK A01 T02760193  RH  061%=      5-min Rain = 0
KSC1 280144Z 14012KT 28/19 A2972 RMK A01 T02760193  RH  061%=      5-min Rain = 0
KSC1 280145Z 14012G17KT 28/19 A2973 RMK A01 T02750194  RH  061%=      5-min Rain = 0
KSC1 280146Z 15009G14KT 28/19 A2973 RMK A01 T02750193  RH  061%=      5-min Rain = 0
KSC1 280147Z 14013KT 28/19 A2973 RMK A01 T02750194  RH  061%=      5-min Rain = 0
KSC1 280148Z 14011KT 28/19 A2973 RMK A01 T02750194  RH  061%=      5-min Rain = 0
KSC1 280149Z 14009KT 28/19 A2973 RMK A01 T02750194  RH  061%=      5-min Rain = 0
KSC1 280150Z 14013KT 27/19 A2973 RMK A01 T02740194  RH  061%=      5-min Rain = 0
KSC1 280151Z 14013KT 27/19 A2973 RMK A01 T02740193  RH  061%=      5-min Rain = 0
KSC1 280152Z 14011KT 27/19 A2973 RMK A01 T02740193  RH  061%=      5-min Rain = 0
KSC1 280153Z 14010KT 27/19 A2973 RMK A01 T02740193  RH  061%=      5-min Rain = 0
KSC1 280154Z 14012G17KT 27/19 A2973 RMK A01 T02730193  RH  062%=      5-min Rain = 0
KSC1 280155Z 15010KT 27/19 A2973 RMK A01 T02730193  RH  062%=      5-min Rain = 0
KSC1 280156Z 14013KT 27/19 A2973 RMK A01 T02730193  RH  062%=      5-min Rain = 0
KSC1 280157Z 14013KT 27/19 A2973 RMK A01 T02730193  RH  062%=      5-min Rain = 0
KSC1 280158Z 15010G17KT 27/19 A2973 RMK A01 T02730193  RH  062%=      5-min Rain = 0
KSC1 280159Z 14012KT 27/19 A2973 RMK A01 T02730193  RH  062%=      5-min Rain = 0
KSC1 280200Z 14014KT 27/19 A2973 RMK A01 T02730192  RH  062%=      5-min Rain = 0
KSC1 280201Z 14010KT 27/19 A2973 RMK A01 T02730193  RH  062%=      5-min Rain = 0
KSC1 280202Z 15010KT 27/19 A2973 RMK A01 T02720193  RH  062%=      5-min Rain = 0
KSC1 280203Z 14013KT 27/19 A2973 RMK A01 T02720192  RH  062%=      5-min Rain = 0
KSC1 280204Z 14010G16KT 27/19 A2973 RMK A01 T02710192  RH  062%=      5-min Rain = 0
KSC1 280205Z 13010KT 27/19 A2973 RMK A01 T02710192  RH  062%=      5-min Rain = 0
KSC1 280206Z 14014KT 27/19 A2973 RMK A01 T02710192  RH  062%=      5-min Rain = 0
KSC1 280207Z 14011KT 27/19 A2973 RMK A01 T02710191  RH  062%=      5-min Rain = 0
KSC1 280208Z 14010KT 27/19 A2973 RMK A01 T02710191  RH  062%=      5-min Rain = 0
KSC1 280209Z 14010KT 27/19 A2973 RMK A01 T02700191  RH  062%=      5-min Rain = 0
KSC1 280210Z 14012KT 27/19 A2973 RMK A01 T02700191  RH  062%=      5-min Rain = 0
KSC1 280211Z 14010G15KT 27/19 A2973 RMK A01 T02700192  RH  062%=      5-min Rain = 0
KSC1 280212Z 14012KT 27/19 A2973 RMK A01 T02690191  RH  062%=      5-min Rain = 0
KSC1 280213Z 14009KT 27/19 A2973 RMK A01 T02690191  RH  062%=      5-min Rain = 0
KSC1 280214Z 14010KT 27/19 A2973 RMK A01 T02690191  RH  062%=      5-min Rain = 0
KSC1 280215Z 14013KT 27/19 A2973 RMK A01 T02690191  RH  062%=      5-min Rain = 0
KSC1 280216Z 14011KT 27/19 A2973 RMK A01 T02690191  RH  062%=      5-min Rain = 0
KSC1 280217Z 13012KT 27/19 A2973 RMK A01 T02690190  RH  062%=      5-min Rain = 0
KSC1 280218Z 15013G18KT 27/19 A2973 RMK A01 T02690191  RH  062%=      5-min Rain = 0
KSC1 280219Z 14013KT 27/19 A2973 RMK A01 T02690191  RH  062%=      5-min Rain = 0
KSC1 280220Z 14013G18KT 27/19 A2973 RMK A01 T02690190  RH  062%=      5-min Rain = 0
KSC1 280221Z 13012KT 27/19 A2973 RMK A01 T02690190  RH  062%=      5-min Rain = 0
KSC1 280222Z 14011KT 27/19 A2973 RMK A01 T02690190  RH  062%=      5-min Rain = 0
KSC1 280223Z 14011KT 27/19 A2973 RMK A01 T02690190  RH  062%=      5-min Rain = 0
KSC1 280224Z 14012KT 27/19 A2973 RMK A01 T02690190  RH  062%=      5-min Rain = 0
KSC1 280225Z 14012KT 27/19 A2973 RMK A01 T02690190  RH  062%=      5-min Rain = 0
KSC1 280226Z 14012KT 27/19 A2973 RMK A01 T02680190  RH  062%=      5-min Rain = 0
KSC1 280227Z 14011G17KT 27/19 A2973 RMK A01 T02680190  RH  062%=      5-min Rain = 0
KSC1 280228Z 14012KT 27/19 A2973 RMK A01 T02680189  RH  062%=      5-min Rain = 0
KSC1 280229Z 14014KT 27/19 A2973 RMK A01 T02680189  RH  062%=      5-min Rain = 0
KSC1 280230Z 14012KT 27/19 A2973 RMK A01 T02680189  RH  062%=      5-min Rain = 0
KSC1 280231Z 14014KT 27/19 A2973 RMK A01 T02680189  RH  062%=      5-min Rain = 0
KSC1 280232Z 14011G16KT 27/19 A2973 RMK A01 T02680189  RH  062%=      5-min Rain = 0
KSC1 280233Z 15012KT 27/19 A2973 RMK A01 T02670189  RH  062%=      5-min Rain = 0
KSC1 280234Z 14013G18KT 27/19 A2973 RMK A01 T02670190  RH  062%=      5-min Rain = 0
KSC1 280235Z 14012KT 27/19 A2973 RMK A01 T02670189  RH  062%=      5-min Rain = 0
KSC1 280236Z 14013KT 27/19 A2973 RMK A01 T02670189  RH  062%=      5-min Rain = 0
KSC1 280237Z 14014KT 27/19 A2973 RMK A01 T02670189  RH  062%=      5-min Rain = 0
KSC1 280238Z 14014KT 27/19 A2973 RMK A01 T02670189  RH  062%=      5-min Rain = 0
KSC1 280239Z 14014KT 27/19 A2973 RMK A01 T02670189  RH  062%=      5-min Rain = 0
KSC1 280240Z 14010KT 27/19 A2973 RMK A01 T02660189  RH  062%=      5-min Rain = 0
KSC1 280241Z 14013G18KT 27/19 A2973 RMK A01 T02660189  RH  063%=      5-min Rain = 0
KSC1 280242Z 14012G18KT 27/19 A2973 RMK A01 T02660189  RH  063%=      5-min Rain = 0
KSC1 280243Z 14012G17KT 27/19 A2973 RMK A01 T02660189  RH  063%=      5-min Rain = 0
KSC1 280244Z 14013G18KT 27/19 A2973 RMK A01 T02660189  RH  063%=      5-min Rain = 0
KSC1 280245Z 14012KT 27/19 A2973 RMK A01 T02660189  RH  063%=      5-min Rain = 0
KSC1 280246Z 14011KT 27/19 A2973 RMK A01 T02650189  RH  063%=      5-min Rain = 0
KSC1 280247Z 14010G15KT 26/19 A2973 RMK A01 T02640189  RH  063%=      5-min Rain = 0
KSC1 280248Z 14015KT 26/19 A2973 RMK A01 T02630189  RH  063%=      5-min Rain = 0
KSC1 280249Z 14011KT 26/19 A2973 RMK A01 T02640189  RH  063%=      5-min Rain = 0
KSC1 280250Z 14010KT 26/19 A2973 RMK A01 T02640189  RH  063%=      5-min Rain = 0
KSC1 280251Z 14011KT 26/19 A2973 RMK A01 T02640189  RH  064%=      5-min Rain = 0
KSC1 280252Z 13010KT 26/19 A2973 RMK A01 T02630189  RH  064%=      5-min Rain = 0
KSC1 280253Z 13012KT 26/19 A2973 RMK A01 T02620190  RH  064%=      5-min Rain = 0
KSC1 280254Z 13011KT 26/19 A2973 RMK A01 T02620189  RH  064%=      5-min Rain = 0
KSC1 280255Z 13011KT 26/19 A2973 RMK A01 T02620190  RH  065%=      5-min Rain = 0
KSC1 280256Z 13012KT 26/19 A2973 RMK A01 T02610189  RH  065%=      5-min Rain = 0
KSC1 280257Z 14010KT 26/19 A2973 RMK A01 T02610190  RH  065%=      5-min Rain = 0
KSC1 280258Z 13013KT 26/19 A2973 RMK A01 T02610190  RH  065%=      5-min Rain = 0
KSC1 280259Z 14010KT 26/19 A2974 RMK A01 T02600190  RH  065%=      5-min Rain = 0
KSC1 280300Z 13012KT 26/19 A2973 RMK A01 T02600190  RH  065%=      5-min Rain = 0
KSC1 280301Z 13012KT 26/19 A2974 RMK A01 T02600190  RH  065%=      5-min Rain = 0
KSC1 280302Z 13009KT 26/19 A2974 RMK A01 T02600190  RH  065%=      5-min Rain = 0
KSC1 280303Z 13010KT 26/19 A2973 RMK A01 T02600190  RH  065%=      5-min Rain = 0
KSC1 280304Z 13013KT 26/19 A2973 RMK A01 T02590190  RH  066%=      5-min Rain = 0
KSC1 280305Z 13013KT 26/19 A2973 RMK A01 T02590190  RH  066%=      5-min Rain = 0
KSC1 280306Z 14010KT 26/19 A2974 RMK A01 T02590190  RH  066%=      5-min Rain = 0
KSC1 280307Z 13009KT 26/19 A2974 RMK A01 T02590190  RH  066%=      5-min Rain = 0
KSC1 280308Z 14012KT 26/19 A2974 RMK A01 T02580190  RH  066%=      5-min Rain = 0
KSC1 280309Z 14012KT 26/19 A2974 RMK A01 T02580190  RH  066%=      5-min Rain = 0
KSC1 280310Z 13010KT 26/19 A2973 RMK A01 T02580190  RH  066%=      5-min Rain = 0
KSC1 280311Z 13012KT 26/19 A2973 RMK A01 T02580190  RH  066%=      5-min Rain = 0
KSC1 280312Z 13011KT 26/19 A2974 RMK A01 T02580190  RH  066%=      5-min Rain = 0
KSC1 280313Z 13013KT 26/19 A2973 RMK A01 T02580190  RH  066%=      5-min Rain = 0
KSC1 280314Z 13012KT 26/19 A2974 RMK A01 T02580190  RH  066%=      5-min Rain = 0
KSC1 280315Z 13011KT 26/19 A2974 RMK A01 T02580190  RH  066%=      5-min Rain = 0
KSC1 280316Z 13011KT 26/19 A2974 RMK A01 T02580190  RH  066%=      5-min Rain = 0
KSC1 280317Z 13010KT 26/19 A2973 RMK A01 T02570190  RH  066%=      5-min Rain = 0
KSC1 280318Z 13010KT 26/19 A2974 RMK A01 T02570190  RH  067%=      5-min Rain = 0
KSC1 280319Z 13010G17KT 26/19 A2974 RMK A01 T02560190  RH  067%=      5-min Rain = 0
KSC1 280320Z 13012KT 26/19 A2973 RMK A01 T02560190  RH  067%=      5-min Rain = 0
KSC1 280321Z 13010KT 26/19 A2974 RMK A01 T02560190  RH  067%=      5-min Rain = 0
KSC1 280322Z 13010KT 26/19 A2974 RMK A01 T02560190  RH  067%=      5-min Rain = 0
KSC1 280323Z 13010KT 26/19 A2974 RMK A01 T02550190  RH  067%=      5-min Rain = 0
KSC1 280324Z 13011KT 26/19 A2974 RMK A01 T02550190  RH  067%=      5-min Rain = 0
KSC1 280325Z 13012KT 26/19 A2974 RMK A01 T02550190  RH  067%=      5-min Rain = 0
KSC1 280326Z 13011KT 26/19 A2974 RMK A01 T02550190  RH  067%=      5-min Rain = 0
KSC1 280327Z 13011KT 26/19 A2974 RMK A01 T02550190  RH  067%=      5-min Rain = 0
KSC1 280328Z 13010KT 25/19 A2974 RMK A01 T02540190  RH  067%=      5-min Rain = 0
KSC1 280329Z 13011KT 25/19 A2974 RMK A01 T02540190  RH  068%=      5-min Rain = 0
KSC1 280330Z 13010KT 25/19 A2974 RMK A01 T02540190  RH  068%=      5-min Rain = 0
KSC1 280331Z 13011KT 25/19 A2974 RMK A01 T02540190  RH  068%=      5-min Rain = 0
KSC1 280332Z 13013G18KT 25/19 A2974 RMK A01 T02540190  RH  068%=      5-min Rain = 0
KSC1 280333Z 13011KT 25/19 A2974 RMK A01 T02540189  RH  067%=      5-min Rain = 0
KSC1 280334Z 12012KT 25/19 A2974 RMK A01 T02540190  RH  068%=      5-min Rain = 0
KSC1 280335Z 13011G17KT 25/19 A2974 RMK A01 T02540190  RH  068%=      5-min Rain = 0
KSC1 280336Z 13010KT 25/19 A2974 RMK A01 T02540190  RH  068%=      5-min Rain = 0
KSC1 280337Z 13011KT 25/19 A2974 RMK A01 T02540190  RH  068%=      5-min Rain = 0
KSC1 280338Z 13010KT 25/19 A2974 RMK A01 T02540190  RH  068%=      5-min Rain = 0
KSC1 280339Z 13011KT 25/19 A2974 RMK A01 T02530190  RH  068%=      5-min Rain = 0
KSC1 280340Z 13011KT 25/19 A2974 RMK A01 T02530190  RH  068%=      5-min Rain = 0
KSC1 280341Z 14011KT 25/19 A2974 RMK A01 T02530190  RH  068%=      5-min Rain = 0
KSC1 280342Z 13011KT 25/19 A2974 RMK A01 T02530190  RH  068%=      5-min Rain = 0
KSC1 280343Z 13012KT 25/19 A2974 RMK A01 T02520190  RH  068%=      5-min Rain = 0
KSC1 280344Z 13012KT 25/19 A2974 RMK A01 T02520190  RH  069%=      5-min Rain = 0
KSC1 280345Z 13013KT 25/19 A2974 RMK A01 T02520190  RH  069%=      5-min Rain = 0
KSC1 280346Z 13011G16KT 25/19 A2974 RMK A01 T02520190  RH  069%=      5-min Rain = 0
KSC1 280347Z 13011KT 25/19 A2974 RMK A01 T02510190  RH  069%=      5-min Rain = 0
KSC1 280348Z 13010KT 25/19 A2974 RMK A01 T02520190  RH  069%=      5-min Rain = 0
KSC1 280349Z 13014KT 25/19 A2974 RMK A01 T02510190  RH  069%=      5-min Rain = 0
KSC1 280350Z 13012KT 25/19 A2974 RMK A01 T02510191  RH  069%=      5-min Rain = 0
KSC1 280351Z 13013KT 25/19 A2974 RMK A01 T02510190  RH  069%=      5-min Rain = 0
KSC1 280352Z 13012KT 25/19 A2974 RMK A01 T02510191  RH  069%=      5-min Rain = 0
KSC1 280353Z 13012KT 25/19 A2974 RMK A01 T02500190  RH  069%=      5-min Rain = 0
KSC1 280354Z 13010KT 25/19 A2973 RMK A01 T02500190  RH  069%=      5-min Rain = 0
KSC1 280355Z 13011KT 25/19 A2974 RMK A01 T02500190  RH  070%=      5-min Rain = 0
KSC1 280356Z 13011KT 25/19 A2974 RMK A01 T02490190  RH  070%=      5-min Rain = 0
KSC1 280357Z 13011G17KT 25/19 A2974 RMK A01 T02490190  RH  070%=      5-min Rain = 0
KSC1 280358Z 13013KT 25/19 A2974 RMK A01 T02490190  RH  070%=      5-min Rain = 0
KSC1 280359Z 13012G17KT 25/19 A2974 RMK A01 T02490191  RH  070%=      5-min Rain = 0
KSC1 280400Z 13011KT 25/19 A2974 RMK A01 T02490190  RH  070%=      5-min Rain = 0
KSC1 280401Z 13014G19KT 25/19 A2974 RMK A01 T02490190  RH  070%=      5-min Rain = 0
KSC1 280402Z 13012KT 25/19 A2974 RMK A01 T02500190  RH  069%=      5-min Rain = 0
KSC1 280403Z 13012KT 25/19 A2974 RMK A01 T02500190  RH  069%=      5-min Rain = 0
KSC1 280404Z 13011KT 25/19 A2974 RMK A01 T02490190  RH  070%=      5-min Rain = 0
KSC1 280405Z 13011KT 25/19 A2974 RMK A01 T02490190  RH  070%=      5-min Rain = 0
KSC1 280406Z 13012KT 25/19 A2974 RMK A01 T02490190  RH  070%=      5-min Rain = 0
KSC1 280407Z 13012G19KT 25/19 A2974 RMK A01 T02480190  RH  070%=      5-min Rain = 0
KSC1 280408Z 13013KT 25/19 A2974 RMK A01 T02490190  RH  070%=      5-min Rain = 0
KSC1 280409Z 14013KT 25/19 A2974 RMK A01 T02480190  RH  070%=      5-min Rain = 0
KSC1 280410Z 13012KT 25/19 A2974 RMK A01 T02480190  RH  070%=      5-min Rain = 0
KSC1 280411Z 13011KT 25/19 A2974 RMK A01 T02480190  RH  070%=      5-min Rain = 0
KSC1 280412Z 13012G17KT 25/19 A2974 RMK A01 T02480190  RH  070%=      5-min Rain = 0
KSC1 280413Z 13015G20KT 25/19 A2974 RMK A01 T02480190  RH  070%=      5-min Rain = 0
KSC1 280414Z 13013KT 25/19 A2974 RMK A01 T02490189  RH  070%=      5-min Rain = 0
KSC1 280415Z 13011KT 25/19 A2974 RMK A01 T02490189  RH  070%=      5-min Rain = 0
KSC1 280416Z 13012KT 25/19 A2974 RMK A01 T02490190  RH  070%=      5-min Rain = 0
KSC1 280417Z 13013KT 25/19 A2974 RMK A01 T02480189  RH  070%=      5-min Rain = 0
KSC1 280418Z 13012KT 25/19 A2974 RMK A01 T02480189  RH  070%=      5-min Rain = 0
KSC1 280419Z 13013KT 25/19 A2974 RMK A01 T02480189  RH  070%=      5-min Rain = 0
KSC1 280420Z 14014KT 25/19 A2974 RMK A01 T02480189  RH  070%=      5-min Rain = 0
KSC1 280421Z 14011KT 25/19 A2974 RMK A01 T02490189  RH  069%=      5-min Rain = 0
KSC1 280422Z 14015KT 25/19 A2974 RMK A01 T02480189  RH  069%=      5-min Rain = 0
KSC1 280423Z 13012G18KT 25/19 A2974 RMK A01 T02490189  RH  069%=      5-min Rain = 0
KSC1 280424Z 13014KT 25/19 A2974 RMK A01 T02480189  RH  069%=      5-min Rain = 0
KSC1 280425Z 13013KT 25/19 A2974 RMK A01 T02480189  RH  069%=      5-min Rain = 0
KSC1 280426Z 13011KT 25/19 A2974 RMK A01 T02480189  RH  069%=      5-min Rain = 0
KSC1 280427Z 13011KT 25/19 A2974 RMK A01 T02470188  RH  070%=      5-min Rain = 0
KSC1 280428Z 13013KT 25/19 A2974 RMK A01 T02470188  RH  070%=      5-min Rain = 0
KSC1 280429Z 14013KT 25/19 A2974 RMK A01 T02470188  RH  070%=      5-min Rain = 0
KSC1 280430Z 13011KT 25/19 A2974 RMK A01 T02470188  RH  070%=      5-min Rain = 0
KSC1 280431Z 13010KT 25/19 A2974 RMK A01 T02470188  RH  070%=      5-min Rain = 0
KSC1 280432Z 14012KT 25/19 A2974 RMK A01 T02470188  RH  070%=      5-min Rain = 0
KSC1 280433Z 13013KT 25/19 A2974 RMK A01 T02460188  RH  070%=      5-min Rain = 0
KSC1 280434Z 13011KT 25/19 A2974 RMK A01 T02460187  RH  070%=      5-min Rain = 0
KSC1 280435Z 13012G18KT 25/19 A2974 RMK A01 T02460187  RH  070%=      5-min Rain = 0
KSC1 280436Z 14013KT 25/19 A2974 RMK A01 T02470187  RH  070%=      5-min Rain = 0
KSC1 280437Z 13012KT 25/19 A2974 RMK A01 T02470187  RH  069%=      5-min Rain = 0
KSC1 280438Z 14013KT 25/19 A2974 RMK A01 T02470187  RH  069%=      5-min Rain = 0
KSC1 280439Z 14010KT 25/19 A2974 RMK A01 T02470187  RH  069%=      5-min Rain = 0
KSC1 280440Z 13010KT 25/19 A2974 RMK A01 T02460187  RH  070%=      5-min Rain = 0
KSC1 280441Z 14013KT 25/19 A2974 RMK A01 T02460187  RH  070%=      5-min Rain = 0
KSC1 280442Z 13013KT 25/19 A2974 RMK A01 T02460186  RH  069%=      5-min Rain = 0
KSC1 280443Z 14012KT 25/19 A2974 RMK A01 T02460186  RH  069%=      5-min Rain = 0
KSC1 280444Z 13010KT 25/19 A2974 RMK A01 T02470186  RH  069%=      5-min Rain = 0
KSC1 280445Z 13012G17KT 25/19 A2974 RMK A01 T02470186  RH  069%=      5-min Rain = 0
KSC1 280446Z 14011KT 25/19 A2974 RMK A01 T02460186  RH  069%=      5-min Rain = 0
KSC1 280447Z 13012KT 25/19 A2974 RMK A01 T02460186  RH  069%=      5-min Rain = 0
KSC1 280448Z 13014KT 25/19 A2974 RMK A01 T02460185  RH  069%=      5-min Rain = 0
KSC1 280449Z 14013KT 25/19 A2974 RMK A01 T02460185  RH  069%=      5-min Rain = 0
KSC1 280450Z 13012KT 25/19 A2974 RMK A01 T02470185  RH  068%=      5-min Rain = 0
KSC1 280451Z 13010KT 25/19 A2974 RMK A01 T02470185  RH  068%=      5-min Rain = 0
KSC1 280452Z 14012KT 25/19 A2974 RMK A01 T02470185  RH  068%=      5-min Rain = 0
KSC1 280453Z 13010KT 25/18 A2974 RMK A01 T02460184  RH  068%=      5-min Rain = 0
KSC1 280454Z 14011KT 25/18 A2974 RMK A01 T02450184  RH  069%=      5-min Rain = 0
KSC1 280455Z 13010KT 25/18 A2974 RMK A01 T02450184  RH  069%=      5-min Rain = 0
KSC1 280456Z 13011KT 25/18 A2974 RMK A01 T02450184  RH  069%=      5-min Rain = 0
KSC1 280457Z 13010KT 25/18 A2974 RMK A01 T02450184  RH  069%=      5-min Rain = 0
KSC1 280458Z 13011KT 25/18 A2974 RMK A01 T02450183  RH  069%=      5-min Rain = 0
KSC1 280459Z 13013KT 25/18 A2974 RMK A01 T02450183  RH  069%=      5-min Rain = 0

Page generated in 0.1686 seconds.